<?xml version="1.0" encoding="UTF-8" standalone="no" ?>
<gpx xmlns="http://www.topografix.com/GPX/1/1" xmlns:xsi="http://www.w3.org/2001/XMLSchema-instance" xsi:schemaLocation="http://www.topografix.com/GPX/1/1 http://www.topografix.com/GPX/1/1/gpx.xsd" version="1.1" creator="VisuGPX - https://www.visugpx.com">
  <metadata>
    <name>Ventoux</name>
    <desc><![CDATA[Départ Rémuzat Col d\'EY, col de Fontaube, col des Aires, Ventoux par Sault, descente sur Malaucène, Vaison la Romaine, dernier col de la croix rouge par Chateauneuf de la Bordette.]]></desc>
  </metadata>
  <trk>
    <name><![CDATA[ACTIVE LOG082951]]></name>
    <trkseg>
      <trkpt lat="44.41604" lon="5.35796">
        <ele>447.592</ele>
        <time>2013-05-06T06:29:48Z</time>
      </trkpt>
      <trkpt lat="44.41603" lon="5.35796">
        <ele>447.592</ele>
        <time>2013-05-06T06:29:50Z</time>
      </trkpt>
      <trkpt lat="44.41603" lon="5.35796">
        <ele>447.341</ele>
        <time>2013-05-06T06:29:51Z</time>
      </trkpt>
      <trkpt lat="44.41608" lon="5.35798">
        <ele>448.649</ele>
        <time>2013-05-06T06:32:36Z</time>
      </trkpt>
      <trkpt lat="44.41609" lon="5.35795">
        <ele>448.791</ele>
        <time>2013-05-06T06:32:40Z</time>
      </trkpt>
      <trkpt lat="44.41615" lon="5.35774">
        <ele>448.558</ele>
        <time>2013-05-06T06:32:48Z</time>
      </trkpt>
      <trkpt lat="44.4161" lon="5.35758">
        <ele>448.105</ele>
        <time>2013-05-06T06:32:54Z</time>
      </trkpt>
      <trkpt lat="44.41593" lon="5.35745">
        <ele>448.155</ele>
        <time>2013-05-06T06:33:01Z</time>
      </trkpt>
      <trkpt lat="44.41575" lon="5.35735">
        <ele>448.055</ele>
        <time>2013-05-06T06:33:09Z</time>
      </trkpt>
      <trkpt lat="44.41566" lon="5.35721">
        <ele>448.519</ele>
        <time>2013-05-06T06:33:18Z</time>
      </trkpt>
      <trkpt lat="44.41563" lon="5.35722">
        <ele>448.542</ele>
        <time>2013-05-06T06:33:23Z</time>
      </trkpt>
      <trkpt lat="44.41562" lon="5.35723">
        <ele>448.225</ele>
        <time>2013-05-06T06:33:25Z</time>
      </trkpt>
      <trkpt lat="44.41556" lon="5.35728">
        <ele>448.566</ele>
        <time>2013-05-06T06:33:33Z</time>
      </trkpt>
      <trkpt lat="44.41554" lon="5.35729">
        <ele>448.285</ele>
        <time>2013-05-06T06:33:41Z</time>
      </trkpt>
      <trkpt lat="44.41558" lon="5.35729">
        <ele>450.484</ele>
        <time>2013-05-06T06:37:08Z</time>
      </trkpt>
      <trkpt lat="44.41558" lon="5.35729">
        <ele>450.352</ele>
        <time>2013-05-06T06:37:19Z</time>
      </trkpt>
      <trkpt lat="44.41552" lon="5.35726">
        <ele>450.46</ele>
        <time>2013-05-06T06:38:55Z</time>
      </trkpt>
      <trkpt lat="44.4155" lon="5.35727">
        <ele>449.958</ele>
        <time>2013-05-06T06:39:35Z</time>
      </trkpt>
      <trkpt lat="44.4155" lon="5.35726">
        <ele>450.296</ele>
        <time>2013-05-06T06:39:46Z</time>
      </trkpt>
      <trkpt lat="44.41548" lon="5.35722">
        <ele>449.97</ele>
        <time>2013-05-06T06:39:56Z</time>
      </trkpt>
      <trkpt lat="44.41539" lon="5.35711">
        <ele>449.611</ele>
        <time>2013-05-06T06:40:03Z</time>
      </trkpt>
      <trkpt lat="44.41525" lon="5.35705">
        <ele>449.333</ele>
        <time>2013-05-06T06:40:08Z</time>
      </trkpt>
      <trkpt lat="44.415" lon="5.35688">
        <ele>449.53</ele>
        <time>2013-05-06T06:40:17Z</time>
      </trkpt>
      <trkpt lat="44.41492" lon="5.35683">
        <ele>449.672</ele>
        <time>2013-05-06T06:40:21Z</time>
      </trkpt>
      <trkpt lat="44.41483" lon="5.35676">
        <ele>449.973</ele>
        <time>2013-05-06T06:40:25Z</time>
      </trkpt>
      <trkpt lat="44.41485" lon="5.35657">
        <ele>450.283</ele>
        <time>2013-05-06T06:40:31Z</time>
      </trkpt>
      <trkpt lat="44.41488" lon="5.35648">
        <ele>449.842</ele>
        <time>2013-05-06T06:40:34Z</time>
      </trkpt>
      <trkpt lat="44.41493" lon="5.35641">
        <ele>450.662</ele>
        <time>2013-05-06T06:40:37Z</time>
      </trkpt>
      <trkpt lat="44.41492" lon="5.35621">
        <ele>450.913</ele>
        <time>2013-05-06T06:40:44Z</time>
      </trkpt>
      <trkpt lat="44.41475" lon="5.3562">
        <ele>449.974</ele>
        <time>2013-05-06T06:40:50Z</time>
      </trkpt>
      <trkpt lat="44.41461" lon="5.35611">
        <ele>450.094</ele>
        <time>2013-05-06T06:40:54Z</time>
      </trkpt>
      <trkpt lat="44.41426" lon="5.35587">
        <ele>450.235</ele>
        <time>2013-05-06T06:41:03Z</time>
      </trkpt>
      <trkpt lat="44.41402" lon="5.35567">
        <ele>450.489</ele>
        <time>2013-05-06T06:41:10Z</time>
      </trkpt>
      <trkpt lat="44.4138" lon="5.35546">
        <ele>449.975</ele>
        <time>2013-05-06T06:41:17Z</time>
      </trkpt>
      <trkpt lat="44.41358" lon="5.35513">
        <ele>449.827</ele>
        <time>2013-05-06T06:41:24Z</time>
      </trkpt>
      <trkpt lat="44.41329" lon="5.35464">
        <ele>449.547</ele>
        <time>2013-05-06T06:41:32Z</time>
      </trkpt>
      <trkpt lat="44.41319" lon="5.35447">
        <ele>449.187</ele>
        <time>2013-05-06T06:41:35Z</time>
      </trkpt>
      <trkpt lat="44.41298" lon="5.35413">
        <ele>449.476</ele>
        <time>2013-05-06T06:41:41Z</time>
      </trkpt>
      <trkpt lat="44.41272" lon="5.3537">
        <ele>449.565</ele>
        <time>2013-05-06T06:41:49Z</time>
      </trkpt>
      <trkpt lat="44.41266" lon="5.3536">
        <ele>449.022</ele>
        <time>2013-05-06T06:41:52Z</time>
      </trkpt>
      <trkpt lat="44.41243" lon="5.35331">
        <ele>448.518</ele>
        <time>2013-05-06T06:41:57Z</time>
      </trkpt>
      <trkpt lat="44.41206" lon="5.35274">
        <ele>447.682</ele>
        <time>2013-05-06T06:42:07Z</time>
      </trkpt>
      <trkpt lat="44.41181" lon="5.35234">
        <ele>447.49</ele>
        <time>2013-05-06T06:42:14Z</time>
      </trkpt>
      <trkpt lat="44.41154" lon="5.35191">
        <ele>447.919</ele>
        <time>2013-05-06T06:42:22Z</time>
      </trkpt>
      <trkpt lat="44.41123" lon="5.35143">
        <ele>446.966</ele>
        <time>2013-05-06T06:42:31Z</time>
      </trkpt>
      <trkpt lat="44.41091" lon="5.35091">
        <ele>447.305</ele>
        <time>2013-05-06T06:42:41Z</time>
      </trkpt>
      <trkpt lat="44.41055" lon="5.35033">
        <ele>447.191</ele>
        <time>2013-05-06T06:42:53Z</time>
      </trkpt>
      <trkpt lat="44.41029" lon="5.3498">
        <ele>449.205</ele>
        <time>2013-05-06T06:43:03Z</time>
      </trkpt>
      <trkpt lat="44.41015" lon="5.34937">
        <ele>451.743</ele>
        <time>2013-05-06T06:43:12Z</time>
      </trkpt>
      <trkpt lat="44.41" lon="5.34894">
        <ele>451.925</ele>
        <time>2013-05-06T06:43:21Z</time>
      </trkpt>
      <trkpt lat="44.41011" lon="5.34871">
        <ele>451.855</ele>
        <time>2013-05-06T06:43:25Z</time>
      </trkpt>
      <trkpt lat="44.41067" lon="5.34837">
        <ele>450.96</ele>
        <time>2013-05-06T06:43:37Z</time>
      </trkpt>
      <trkpt lat="44.41128" lon="5.34791">
        <ele>451.029</ele>
        <time>2013-05-06T06:43:50Z</time>
      </trkpt>
      <trkpt lat="44.41166" lon="5.34745">
        <ele>449.942</ele>
        <time>2013-05-06T06:43:59Z</time>
      </trkpt>
      <trkpt lat="44.41215" lon="5.34671">
        <ele>449.813</ele>
        <time>2013-05-06T06:44:12Z</time>
      </trkpt>
      <trkpt lat="44.41243" lon="5.3461">
        <ele>448.353</ele>
        <time>2013-05-06T06:44:21Z</time>
      </trkpt>
      <trkpt lat="44.41251" lon="5.34551">
        <ele>448.502</ele>
        <time>2013-05-06T06:44:28Z</time>
      </trkpt>
      <trkpt lat="44.41259" lon="5.34425">
        <ele>448.216</ele>
        <time>2013-05-06T06:44:42Z</time>
      </trkpt>
      <trkpt lat="44.4127" lon="5.34326">
        <ele>447.784</ele>
        <time>2013-05-06T06:44:53Z</time>
      </trkpt>
      <trkpt lat="44.41281" lon="5.34232">
        <ele>446.236</ele>
        <time>2013-05-06T06:45:03Z</time>
      </trkpt>
      <trkpt lat="44.413" lon="5.34158">
        <ele>446.243</ele>
        <time>2013-05-06T06:45:11Z</time>
      </trkpt>
      <trkpt lat="44.41333" lon="5.34077">
        <ele>446.867</ele>
        <time>2013-05-06T06:45:20Z</time>
      </trkpt>
      <trkpt lat="44.41361" lon="5.34006">
        <ele>446.344</ele>
        <time>2013-05-06T06:45:28Z</time>
      </trkpt>
      <trkpt lat="44.414" lon="5.33907">
        <ele>445.199</ele>
        <time>2013-05-06T06:45:39Z</time>
      </trkpt>
      <trkpt lat="44.41442" lon="5.338">
        <ele>444.763</ele>
        <time>2013-05-06T06:45:51Z</time>
      </trkpt>
      <trkpt lat="44.41491" lon="5.33689">
        <ele>443.549</ele>
        <time>2013-05-06T06:46:04Z</time>
      </trkpt>
      <trkpt lat="44.41538" lon="5.33586">
        <ele>443.859</ele>
        <time>2013-05-06T06:46:16Z</time>
      </trkpt>
      <trkpt lat="44.41601" lon="5.33467">
        <ele>442.919</ele>
        <time>2013-05-06T06:46:30Z</time>
      </trkpt>
      <trkpt lat="44.41658" lon="5.33383">
        <ele>443.374</ele>
        <time>2013-05-06T06:46:41Z</time>
      </trkpt>
      <trkpt lat="44.41698" lon="5.33341">
        <ele>443.068</ele>
        <time>2013-05-06T06:46:48Z</time>
      </trkpt>
      <trkpt lat="44.41766" lon="5.33288">
        <ele>441.76</ele>
        <time>2013-05-06T06:46:59Z</time>
      </trkpt>
      <trkpt lat="44.4184" lon="5.3325">
        <ele>439.361</ele>
        <time>2013-05-06T06:47:10Z</time>
      </trkpt>
      <trkpt lat="44.4186" lon="5.33237">
        <ele>439.412</ele>
        <time>2013-05-06T06:47:13Z</time>
      </trkpt>
      <trkpt lat="44.4188" lon="5.33195">
        <ele>438.99</ele>
        <time>2013-05-06T06:47:18Z</time>
      </trkpt>
      <trkpt lat="44.41882" lon="5.33185">
        <ele>439.458</ele>
        <time>2013-05-06T06:47:19Z</time>
      </trkpt>
      <trkpt lat="44.41889" lon="5.33106">
        <ele>437.943</ele>
        <time>2013-05-06T06:47:26Z</time>
      </trkpt>
      <trkpt lat="44.41908" lon="5.33058">
        <ele>436.709</ele>
        <time>2013-05-06T06:47:31Z</time>
      </trkpt>
      <trkpt lat="44.41936" lon="5.33026">
        <ele>435.846</ele>
        <time>2013-05-06T06:47:36Z</time>
      </trkpt>
      <trkpt lat="44.41972" lon="5.33025">
        <ele>435.875</ele>
        <time>2013-05-06T06:47:41Z</time>
      </trkpt>
      <trkpt lat="44.42028" lon="5.33057">
        <ele>434.755</ele>
        <time>2013-05-06T06:47:49Z</time>
      </trkpt>
      <trkpt lat="44.42079" lon="5.33089">
        <ele>434.003</ele>
        <time>2013-05-06T06:47:57Z</time>
      </trkpt>
      <trkpt lat="44.42111" lon="5.33101">
        <ele>433.124</ele>
        <time>2013-05-06T06:48:02Z</time>
      </trkpt>
      <trkpt lat="44.42137" lon="5.33099">
        <ele>431.897</ele>
        <time>2013-05-06T06:48:07Z</time>
      </trkpt>
      <trkpt lat="44.42137" lon="5.33099">
        <ele>431.827</ele>
        <time>2013-05-06T06:48:08Z</time>
      </trkpt>
      <trkpt lat="44.42157" lon="5.3305">
        <ele>431.888</ele>
        <time>2013-05-06T06:48:13Z</time>
      </trkpt>
      <trkpt lat="44.42161" lon="5.33039">
        <ele>432.456</ele>
        <time>2013-05-06T06:48:15Z</time>
      </trkpt>
      <trkpt lat="44.42172" lon="5.3302">
        <ele>431.016</ele>
        <time>2013-05-06T06:48:19Z</time>
      </trkpt>
      <trkpt lat="44.42183" lon="5.33002">
        <ele>430.833</ele>
        <time>2013-05-06T06:48:23Z</time>
      </trkpt>
      <trkpt lat="44.42227" lon="5.32946">
        <ele>429.726</ele>
        <time>2013-05-06T06:48:29Z</time>
      </trkpt>
      <trkpt lat="44.4224" lon="5.32933">
        <ele>428.783</ele>
        <time>2013-05-06T06:48:34Z</time>
      </trkpt>
      <trkpt lat="44.42296" lon="5.32873">
        <ele>428.394</ele>
        <time>2013-05-06T06:48:37Z</time>
      </trkpt>
      <trkpt lat="44.423" lon="5.32867">
        <ele>428.179</ele>
        <time>2013-05-06T06:48:41Z</time>
      </trkpt>
      <trkpt lat="44.423" lon="5.32867">
        <ele>428.237</ele>
        <time>2013-05-06T06:48:43Z</time>
      </trkpt>
      <trkpt lat="44.42336" lon="5.32775">
        <ele>428.135</ele>
        <time>2013-05-06T06:48:49Z</time>
      </trkpt>
      <trkpt lat="44.42333" lon="5.32737">
        <ele>428.362</ele>
        <time>2013-05-06T06:48:53Z</time>
      </trkpt>
      <trkpt lat="44.42303" lon="5.32721">
        <ele>428.922</ele>
        <time>2013-05-06T06:48:57Z</time>
      </trkpt>
      <trkpt lat="44.42241" lon="5.32683">
        <ele>427.754</ele>
        <time>2013-05-06T06:49:06Z</time>
      </trkpt>
      <trkpt lat="44.42211" lon="5.32652">
        <ele>426.277</ele>
        <time>2013-05-06T06:49:11Z</time>
      </trkpt>
      <trkpt lat="44.42171" lon="5.32595">
        <ele>426.679</ele>
        <time>2013-05-06T06:49:19Z</time>
      </trkpt>
      <trkpt lat="44.42154" lon="5.32537">
        <ele>426.13</ele>
        <time>2013-05-06T06:49:25Z</time>
      </trkpt>
      <trkpt lat="44.42154" lon="5.3242">
        <ele>427.024</ele>
        <time>2013-05-06T06:49:36Z</time>
      </trkpt>
      <trkpt lat="44.42152" lon="5.3231">
        <ele>425.667</ele>
        <time>2013-05-06T06:49:47Z</time>
      </trkpt>
      <trkpt lat="44.42151" lon="5.323">
        <ele>425.432</ele>
        <time>2013-05-06T06:49:48Z</time>
      </trkpt>
      <trkpt lat="44.42145" lon="5.32234">
        <ele>425.396</ele>
        <time>2013-05-06T06:49:55Z</time>
      </trkpt>
      <trkpt lat="44.42143" lon="5.32215">
        <ele>425.617</ele>
        <time>2013-05-06T06:49:57Z</time>
      </trkpt>
      <trkpt lat="44.42149" lon="5.32159">
        <ele>425.233</ele>
        <time>2013-05-06T06:50:03Z</time>
      </trkpt>
      <trkpt lat="44.42167" lon="5.32132">
        <ele>424.652</ele>
        <time>2013-05-06T06:50:07Z</time>
      </trkpt>
      <trkpt lat="44.42235" lon="5.3205">
        <ele>424.886</ele>
        <time>2013-05-06T06:50:20Z</time>
      </trkpt>
      <trkpt lat="44.42273" lon="5.32029">
        <ele>423.483</ele>
        <time>2013-05-06T06:50:26Z</time>
      </trkpt>
      <trkpt lat="44.42286" lon="5.32028">
        <ele>423.637</ele>
        <time>2013-05-06T06:50:28Z</time>
      </trkpt>
      <trkpt lat="44.42351" lon="5.32037">
        <ele>423.443</ele>
        <time>2013-05-06T06:50:37Z</time>
      </trkpt>
      <trkpt lat="44.42357" lon="5.32039">
        <ele>423.704</ele>
        <time>2013-05-06T06:50:38Z</time>
      </trkpt>
      <trkpt lat="44.42395" lon="5.32027">
        <ele>422.568</ele>
        <time>2013-05-06T06:50:44Z</time>
      </trkpt>
      <trkpt lat="44.42408" lon="5.32017">
        <ele>422.148</ele>
        <time>2013-05-06T06:50:46Z</time>
      </trkpt>
      <trkpt lat="44.42461" lon="5.31949">
        <ele>420.997</ele>
        <time>2013-05-06T06:50:56Z</time>
      </trkpt>
      <trkpt lat="44.4248" lon="5.31911">
        <ele>420.35</ele>
        <time>2013-05-06T06:51:01Z</time>
      </trkpt>
      <trkpt lat="44.42491" lon="5.31852">
        <ele>419.29</ele>
        <time>2013-05-06T06:51:07Z</time>
      </trkpt>
      <trkpt lat="44.42512" lon="5.31787">
        <ele>418.307</ele>
        <time>2013-05-06T06:51:14Z</time>
      </trkpt>
      <trkpt lat="44.4252" lon="5.3177">
        <ele>418.824</ele>
        <time>2013-05-06T06:51:16Z</time>
      </trkpt>
      <trkpt lat="44.42534" lon="5.31699">
        <ele>417.931</ele>
        <time>2013-05-06T06:51:23Z</time>
      </trkpt>
      <trkpt lat="44.42548" lon="5.31616">
        <ele>417.1</ele>
        <time>2013-05-06T06:51:31Z</time>
      </trkpt>
      <trkpt lat="44.42569" lon="5.31564">
        <ele>415.709</ele>
        <time>2013-05-06T06:51:37Z</time>
      </trkpt>
      <trkpt lat="44.42598" lon="5.31534">
        <ele>415.311</ele>
        <time>2013-05-06T06:51:42Z</time>
      </trkpt>
      <trkpt lat="44.42653" lon="5.31507">
        <ele>415.359</ele>
        <time>2013-05-06T06:51:50Z</time>
      </trkpt>
      <trkpt lat="44.42696" lon="5.31519">
        <ele>414.669</ele>
        <time>2013-05-06T06:51:56Z</time>
      </trkpt>
      <trkpt lat="44.42745" lon="5.31548">
        <ele>414.797</ele>
        <time>2013-05-06T06:52:03Z</time>
      </trkpt>
      <trkpt lat="44.42789" lon="5.31569">
        <ele>413.957</ele>
        <time>2013-05-06T06:52:09Z</time>
      </trkpt>
      <trkpt lat="44.42825" lon="5.31571">
        <ele>412.773</ele>
        <time>2013-05-06T06:52:14Z</time>
      </trkpt>
      <trkpt lat="44.4284" lon="5.31564">
        <ele>413.137</ele>
        <time>2013-05-06T06:52:16Z</time>
      </trkpt>
      <trkpt lat="44.42894" lon="5.31541">
        <ele>411.827</ele>
        <time>2013-05-06T06:52:23Z</time>
      </trkpt>
      <trkpt lat="44.42932" lon="5.3153">
        <ele>411.444</ele>
        <time>2013-05-06T06:52:28Z</time>
      </trkpt>
      <trkpt lat="44.42985" lon="5.31505">
        <ele>411.081</ele>
        <time>2013-05-06T06:52:35Z</time>
      </trkpt>
      <trkpt lat="44.43051" lon="5.31466">
        <ele>410.963</ele>
        <time>2013-05-06T06:52:44Z</time>
      </trkpt>
      <trkpt lat="44.43101" lon="5.31418">
        <ele>410.31</ele>
        <time>2013-05-06T06:52:52Z</time>
      </trkpt>
      <trkpt lat="44.43113" lon="5.31406">
        <ele>409.417</ele>
        <time>2013-05-06T06:52:54Z</time>
      </trkpt>
      <trkpt lat="44.43165" lon="5.31348">
        <ele>408.395</ele>
        <time>2013-05-06T06:53:03Z</time>
      </trkpt>
      <trkpt lat="44.43182" lon="5.31315">
        <ele>408.169</ele>
        <time>2013-05-06T06:53:07Z</time>
      </trkpt>
      <trkpt lat="44.43195" lon="5.31256">
        <ele>407.493</ele>
        <time>2013-05-06T06:53:13Z</time>
      </trkpt>
      <trkpt lat="44.43194" lon="5.3117">
        <ele>406.788</ele>
        <time>2013-05-06T06:53:21Z</time>
      </trkpt>
      <trkpt lat="44.43179" lon="5.31085">
        <ele>405.794</ele>
        <time>2013-05-06T06:53:29Z</time>
      </trkpt>
      <trkpt lat="44.43167" lon="5.31005">
        <ele>405.346</ele>
        <time>2013-05-06T06:53:37Z</time>
      </trkpt>
      <trkpt lat="44.43175" lon="5.30967">
        <ele>404.242</ele>
        <time>2013-05-06T06:53:41Z</time>
      </trkpt>
      <trkpt lat="44.43207" lon="5.30906">
        <ele>404.484</ele>
        <time>2013-05-06T06:53:48Z</time>
      </trkpt>
      <trkpt lat="44.43262" lon="5.30825">
        <ele>403.323</ele>
        <time>2013-05-06T06:53:58Z</time>
      </trkpt>
      <trkpt lat="44.43291" lon="5.30765">
        <ele>402.929</ele>
        <time>2013-05-06T06:54:05Z</time>
      </trkpt>
      <trkpt lat="44.43294" lon="5.30755">
        <ele>403.107</ele>
        <time>2013-05-06T06:54:06Z</time>
      </trkpt>
      <trkpt lat="44.43298" lon="5.30705">
        <ele>402.365</ele>
        <time>2013-05-06T06:54:11Z</time>
      </trkpt>
      <trkpt lat="44.43294" lon="5.30683">
        <ele>402.722</ele>
        <time>2013-05-06T06:54:13Z</time>
      </trkpt>
      <trkpt lat="44.43274" lon="5.30577">
        <ele>401.766</ele>
        <time>2013-05-06T06:54:23Z</time>
      </trkpt>
      <trkpt lat="44.43252" lon="5.30469">
        <ele>400.732</ele>
        <time>2013-05-06T06:54:33Z</time>
      </trkpt>
      <trkpt lat="44.4325" lon="5.30458">
        <ele>400.483</ele>
        <time>2013-05-06T06:54:34Z</time>
      </trkpt>
      <trkpt lat="44.43244" lon="5.30426">
        <ele>400.461</ele>
        <time>2013-05-06T06:54:37Z</time>
      </trkpt>
      <trkpt lat="44.43223" lon="5.30382">
        <ele>400.637</ele>
        <time>2013-05-06T06:54:42Z</time>
      </trkpt>
      <trkpt lat="44.43203" lon="5.30371">
        <ele>400.42</ele>
        <time>2013-05-06T06:54:45Z</time>
      </trkpt>
      <trkpt lat="44.43148" lon="5.30335">
        <ele>399.391</ele>
        <time>2013-05-06T06:54:53Z</time>
      </trkpt>
      <trkpt lat="44.43116" lon="5.30287">
        <ele>399.85</ele>
        <time>2013-05-06T06:54:59Z</time>
      </trkpt>
      <trkpt lat="44.43094" lon="5.30205">
        <ele>398.626</ele>
        <time>2013-05-06T06:55:07Z</time>
      </trkpt>
      <trkpt lat="44.4309" lon="5.30108">
        <ele>398.418</ele>
        <time>2013-05-06T06:55:16Z</time>
      </trkpt>
      <trkpt lat="44.43104" lon="5.30038">
        <ele>397.629</ele>
        <time>2013-05-06T06:55:23Z</time>
      </trkpt>
      <trkpt lat="44.43127" lon="5.29984">
        <ele>397.918</ele>
        <time>2013-05-06T06:55:29Z</time>
      </trkpt>
      <trkpt lat="44.43146" lon="5.29948">
        <ele>397.649</ele>
        <time>2013-05-06T06:55:33Z</time>
      </trkpt>
      <trkpt lat="44.43173" lon="5.2987">
        <ele>396.658</ele>
        <time>2013-05-06T06:55:41Z</time>
      </trkpt>
      <trkpt lat="44.43202" lon="5.29795">
        <ele>396.854</ele>
        <time>2013-05-06T06:55:49Z</time>
      </trkpt>
      <trkpt lat="44.43238" lon="5.29762">
        <ele>396.686</ele>
        <time>2013-05-06T06:55:55Z</time>
      </trkpt>
      <trkpt lat="44.43271" lon="5.29756">
        <ele>396.452</ele>
        <time>2013-05-06T06:56:00Z</time>
      </trkpt>
      <trkpt lat="44.43286" lon="5.2976">
        <ele>396.608</ele>
        <time>2013-05-06T06:56:02Z</time>
      </trkpt>
      <trkpt lat="44.43326" lon="5.29777">
        <ele>397.665</ele>
        <time>2013-05-06T06:56:08Z</time>
      </trkpt>
      <trkpt lat="44.43363" lon="5.29777">
        <ele>398.549</ele>
        <time>2013-05-06T06:56:13Z</time>
      </trkpt>
      <trkpt lat="44.43406" lon="5.29763">
        <ele>399.371</ele>
        <time>2013-05-06T06:56:20Z</time>
      </trkpt>
      <trkpt lat="44.43431" lon="5.29763">
        <ele>399.668</ele>
        <time>2013-05-06T06:56:24Z</time>
      </trkpt>
      <trkpt lat="44.4347" lon="5.29771">
        <ele>400.186</ele>
        <time>2013-05-06T06:56:30Z</time>
      </trkpt>
      <trkpt lat="44.43482" lon="5.29768">
        <ele>398.94</ele>
        <time>2013-05-06T06:56:32Z</time>
      </trkpt>
      <trkpt lat="44.43504" lon="5.29749">
        <ele>399.067</ele>
        <time>2013-05-06T06:56:36Z</time>
      </trkpt>
      <trkpt lat="44.43509" lon="5.29742">
        <ele>398.454</ele>
        <time>2013-05-06T06:56:37Z</time>
      </trkpt>
      <trkpt lat="44.43583" lon="5.29646">
        <ele>396.295</ele>
        <time>2013-05-06T06:56:50Z</time>
      </trkpt>
      <trkpt lat="44.43646" lon="5.29573">
        <ele>394.981</ele>
        <time>2013-05-06T06:57:01Z</time>
      </trkpt>
      <trkpt lat="44.43702" lon="5.29506">
        <ele>394.51</ele>
        <time>2013-05-06T06:57:11Z</time>
      </trkpt>
      <trkpt lat="44.43733" lon="5.29437">
        <ele>394.711</ele>
        <time>2013-05-06T06:57:19Z</time>
      </trkpt>
      <trkpt lat="44.43745" lon="5.29386">
        <ele>393.968</ele>
        <time>2013-05-06T06:57:24Z</time>
      </trkpt>
      <trkpt lat="44.4374" lon="5.29343">
        <ele>393.786</ele>
        <time>2013-05-06T06:57:29Z</time>
      </trkpt>
      <trkpt lat="44.43732" lon="5.29328">
        <ele>393.142</ele>
        <time>2013-05-06T06:57:31Z</time>
      </trkpt>
      <trkpt lat="44.43684" lon="5.29259">
        <ele>392.824</ele>
        <time>2013-05-06T06:57:41Z</time>
      </trkpt>
      <trkpt lat="44.43652" lon="5.29242">
        <ele>392.993</ele>
        <time>2013-05-06T06:57:46Z</time>
      </trkpt>
      <trkpt lat="44.43613" lon="5.29252">
        <ele>392.562</ele>
        <time>2013-05-06T06:57:52Z</time>
      </trkpt>
      <trkpt lat="44.43592" lon="5.29271">
        <ele>393.106</ele>
        <time>2013-05-06T06:57:56Z</time>
      </trkpt>
      <trkpt lat="44.43539" lon="5.29341">
        <ele>392.295</ele>
        <time>2013-05-06T06:58:07Z</time>
      </trkpt>
      <trkpt lat="44.43507" lon="5.29353">
        <ele>391.236</ele>
        <time>2013-05-06T06:58:12Z</time>
      </trkpt>
      <trkpt lat="44.43482" lon="5.29336">
        <ele>390.825</ele>
        <time>2013-05-06T06:58:16Z</time>
      </trkpt>
      <trkpt lat="44.43461" lon="5.29292">
        <ele>390.311</ele>
        <time>2013-05-06T06:58:21Z</time>
      </trkpt>
      <trkpt lat="44.43457" lon="5.29283">
        <ele>391.408</ele>
        <time>2013-05-06T06:58:22Z</time>
      </trkpt>
      <trkpt lat="44.43451" lon="5.29264">
        <ele>390.891</ele>
        <time>2013-05-06T06:58:24Z</time>
      </trkpt>
      <trkpt lat="44.43447" lon="5.29242">
        <ele>390.585</ele>
        <time>2013-05-06T06:58:26Z</time>
      </trkpt>
      <trkpt lat="44.43446" lon="5.29152">
        <ele>389.775</ele>
        <time>2013-05-06T06:58:34Z</time>
      </trkpt>
      <trkpt lat="44.43439" lon="5.29079">
        <ele>390.494</ele>
        <time>2013-05-06T06:58:41Z</time>
      </trkpt>
      <trkpt lat="44.43417" lon="5.28985">
        <ele>389.116</ele>
        <time>2013-05-06T06:58:51Z</time>
      </trkpt>
      <trkpt lat="44.4339" lon="5.28904">
        <ele>389.218</ele>
        <time>2013-05-06T06:59:00Z</time>
      </trkpt>
      <trkpt lat="44.43357" lon="5.28817">
        <ele>388.695</ele>
        <time>2013-05-06T06:59:10Z</time>
      </trkpt>
      <trkpt lat="44.43322" lon="5.28788">
        <ele>387.667</ele>
        <time>2013-05-06T06:59:16Z</time>
      </trkpt>
      <trkpt lat="44.43315" lon="5.28785">
        <ele>388.536</ele>
        <time>2013-05-06T06:59:17Z</time>
      </trkpt>
      <trkpt lat="44.4329" lon="5.28779">
        <ele>387.71</ele>
        <time>2013-05-06T06:59:21Z</time>
      </trkpt>
      <trkpt lat="44.43265" lon="5.28783">
        <ele>387.632</ele>
        <time>2013-05-06T06:59:25Z</time>
      </trkpt>
      <trkpt lat="44.43241" lon="5.28789">
        <ele>386.76</ele>
        <time>2013-05-06T06:59:29Z</time>
      </trkpt>
      <trkpt lat="44.4321" lon="5.2879">
        <ele>385.709</ele>
        <time>2013-05-06T06:59:34Z</time>
      </trkpt>
      <trkpt lat="44.43193" lon="5.28753">
        <ele>385.768</ele>
        <time>2013-05-06T06:59:39Z</time>
      </trkpt>
      <trkpt lat="44.43193" lon="5.28741">
        <ele>385.922</ele>
        <time>2013-05-06T06:59:40Z</time>
      </trkpt>
      <trkpt lat="44.43193" lon="5.2863">
        <ele>385.77</ele>
        <time>2013-05-06T06:59:50Z</time>
      </trkpt>
      <trkpt lat="44.43196" lon="5.28609">
        <ele>385.66</ele>
        <time>2013-05-06T06:59:52Z</time>
      </trkpt>
      <trkpt lat="44.43223" lon="5.28531">
        <ele>385.399</ele>
        <time>2013-05-06T07:00:00Z</time>
      </trkpt>
      <trkpt lat="44.43258" lon="5.2846">
        <ele>384.427</ele>
        <time>2013-05-06T07:00:08Z</time>
      </trkpt>
      <trkpt lat="44.43306" lon="5.2836">
        <ele>384.073</ele>
        <time>2013-05-06T07:00:19Z</time>
      </trkpt>
      <trkpt lat="44.43326" lon="5.28291">
        <ele>383.345</ele>
        <time>2013-05-06T07:00:26Z</time>
      </trkpt>
      <trkpt lat="44.43316" lon="5.28245">
        <ele>382.288</ele>
        <time>2013-05-06T07:00:31Z</time>
      </trkpt>
      <trkpt lat="44.43267" lon="5.28208">
        <ele>383.035</ele>
        <time>2013-05-06T07:00:40Z</time>
      </trkpt>
      <trkpt lat="44.43251" lon="5.28212">
        <ele>382.05</ele>
        <time>2013-05-06T07:00:42Z</time>
      </trkpt>
      <trkpt lat="44.43203" lon="5.28223">
        <ele>381.494</ele>
        <time>2013-05-06T07:00:48Z</time>
      </trkpt>
      <trkpt lat="44.43167" lon="5.28206">
        <ele>380.929</ele>
        <time>2013-05-06T07:00:53Z</time>
      </trkpt>
      <trkpt lat="44.43159" lon="5.2818">
        <ele>380.012</ele>
        <time>2013-05-06T07:00:57Z</time>
      </trkpt>
      <trkpt lat="44.43159" lon="5.28149">
        <ele>380.789</ele>
        <time>2013-05-06T07:01:00Z</time>
      </trkpt>
      <trkpt lat="44.4319" lon="5.28035">
        <ele>381.594</ele>
        <time>2013-05-06T07:01:11Z</time>
      </trkpt>
      <trkpt lat="44.43198" lon="5.28006">
        <ele>381.531</ele>
        <time>2013-05-06T07:01:14Z</time>
      </trkpt>
      <trkpt lat="44.43203" lon="5.27951">
        <ele>381.478</ele>
        <time>2013-05-06T07:01:20Z</time>
      </trkpt>
      <trkpt lat="44.43195" lon="5.27894">
        <ele>382.144</ele>
        <time>2013-05-06T07:01:26Z</time>
      </trkpt>
      <trkpt lat="44.43175" lon="5.27833">
        <ele>381.28</ele>
        <time>2013-05-06T07:01:33Z</time>
      </trkpt>
      <trkpt lat="44.43139" lon="5.27779">
        <ele>380.595</ele>
        <time>2013-05-06T07:01:40Z</time>
      </trkpt>
      <trkpt lat="44.4309" lon="5.2773">
        <ele>380.007</ele>
        <time>2013-05-06T07:01:48Z</time>
      </trkpt>
      <trkpt lat="44.43042" lon="5.277">
        <ele>379.977</ele>
        <time>2013-05-06T07:01:55Z</time>
      </trkpt>
      <trkpt lat="44.42976" lon="5.27674">
        <ele>379.475</ele>
        <time>2013-05-06T07:02:05Z</time>
      </trkpt>
      <trkpt lat="44.42928" lon="5.27681">
        <ele>380.004</ele>
        <time>2013-05-06T07:02:12Z</time>
      </trkpt>
      <trkpt lat="44.42883" lon="5.27707">
        <ele>379.899</ele>
        <time>2013-05-06T07:02:19Z</time>
      </trkpt>
      <trkpt lat="44.42868" lon="5.27727">
        <ele>380.175</ele>
        <time>2013-05-06T07:02:22Z</time>
      </trkpt>
      <trkpt lat="44.4286" lon="5.27741">
        <ele>379.622</ele>
        <time>2013-05-06T07:02:24Z</time>
      </trkpt>
      <trkpt lat="44.42851" lon="5.27764">
        <ele>380.209</ele>
        <time>2013-05-06T07:02:27Z</time>
      </trkpt>
      <trkpt lat="44.42837" lon="5.2783">
        <ele>380.294</ele>
        <time>2013-05-06T07:02:35Z</time>
      </trkpt>
      <trkpt lat="44.42821" lon="5.27924">
        <ele>380.048</ele>
        <time>2013-05-06T07:02:46Z</time>
      </trkpt>
      <trkpt lat="44.42814" lon="5.2795">
        <ele>380.195</ele>
        <time>2013-05-06T07:02:49Z</time>
      </trkpt>
      <trkpt lat="44.42793" lon="5.27983">
        <ele>380.348</ele>
        <time>2013-05-06T07:02:54Z</time>
      </trkpt>
      <trkpt lat="44.42765" lon="5.27977">
        <ele>381.393</ele>
        <time>2013-05-06T07:02:58Z</time>
      </trkpt>
      <trkpt lat="44.42752" lon="5.27969">
        <ele>381.566</ele>
        <time>2013-05-06T07:03:00Z</time>
      </trkpt>
      <trkpt lat="44.42735" lon="5.27949">
        <ele>381.448</ele>
        <time>2013-05-06T07:03:03Z</time>
      </trkpt>
      <trkpt lat="44.42694" lon="5.27891">
        <ele>382.48</ele>
        <time>2013-05-06T07:03:11Z</time>
      </trkpt>
      <trkpt lat="44.42648" lon="5.27836">
        <ele>381.871</ele>
        <time>2013-05-06T07:03:20Z</time>
      </trkpt>
      <trkpt lat="44.4259" lon="5.27786">
        <ele>381.605</ele>
        <time>2013-05-06T07:03:30Z</time>
      </trkpt>
      <trkpt lat="44.42527" lon="5.27742">
        <ele>381.306</ele>
        <time>2013-05-06T07:03:40Z</time>
      </trkpt>
      <trkpt lat="44.42452" lon="5.27696">
        <ele>381.095</ele>
        <time>2013-05-06T07:03:52Z</time>
      </trkpt>
      <trkpt lat="44.42385" lon="5.27663">
        <ele>380.182</ele>
        <time>2013-05-06T07:04:02Z</time>
      </trkpt>
      <trkpt lat="44.42318" lon="5.27632">
        <ele>380.512</ele>
        <time>2013-05-06T07:04:12Z</time>
      </trkpt>
      <trkpt lat="44.42249" lon="5.27601">
        <ele>380.069</ele>
        <time>2013-05-06T07:04:23Z</time>
      </trkpt>
      <trkpt lat="44.42181" lon="5.27568">
        <ele>379.225</ele>
        <time>2013-05-06T07:04:33Z</time>
      </trkpt>
      <trkpt lat="44.42129" lon="5.27527">
        <ele>379.46</ele>
        <time>2013-05-06T07:04:42Z</time>
      </trkpt>
      <trkpt lat="44.42072" lon="5.27457">
        <ele>378.538</ele>
        <time>2013-05-06T07:04:53Z</time>
      </trkpt>
      <trkpt lat="44.42017" lon="5.27391">
        <ele>378.396</ele>
        <time>2013-05-06T07:05:03Z</time>
      </trkpt>
      <trkpt lat="44.41962" lon="5.27337">
        <ele>378.173</ele>
        <time>2013-05-06T07:05:13Z</time>
      </trkpt>
      <trkpt lat="44.41896" lon="5.27278">
        <ele>378.05</ele>
        <time>2013-05-06T07:05:24Z</time>
      </trkpt>
      <trkpt lat="44.41857" lon="5.27237">
        <ele>376.949</ele>
        <time>2013-05-06T07:05:31Z</time>
      </trkpt>
      <trkpt lat="44.41815" lon="5.27194">
        <ele>377.169</ele>
        <time>2013-05-06T07:05:38Z</time>
      </trkpt>
      <trkpt lat="44.41763" lon="5.27145">
        <ele>376.913</ele>
        <time>2013-05-06T07:05:47Z</time>
      </trkpt>
      <trkpt lat="44.41705" lon="5.27091">
        <ele>376.746</ele>
        <time>2013-05-06T07:05:57Z</time>
      </trkpt>
      <trkpt lat="44.41639" lon="5.27023">
        <ele>375.477</ele>
        <time>2013-05-06T07:06:08Z</time>
      </trkpt>
      <trkpt lat="44.41579" lon="5.2697">
        <ele>374.955</ele>
        <time>2013-05-06T07:06:18Z</time>
      </trkpt>
      <trkpt lat="44.41579" lon="5.2697">
        <ele>374.465</ele>
        <time>2013-05-06T07:06:19Z</time>
      </trkpt>
      <trkpt lat="44.41551" lon="5.26952">
        <ele>375.174</ele>
        <time>2013-05-06T07:06:22Z</time>
      </trkpt>
      <trkpt lat="44.41523" lon="5.26914">
        <ele>375.125</ele>
        <time>2013-05-06T07:06:28Z</time>
      </trkpt>
      <trkpt lat="44.4152" lon="5.26906">
        <ele>375.174</ele>
        <time>2013-05-06T07:06:29Z</time>
      </trkpt>
      <trkpt lat="44.41486" lon="5.26831">
        <ele>373.798</ele>
        <time>2013-05-06T07:06:38Z</time>
      </trkpt>
      <trkpt lat="44.41438" lon="5.26732">
        <ele>372.557</ele>
        <time>2013-05-06T07:06:50Z</time>
      </trkpt>
      <trkpt lat="44.41429" lon="5.26676">
        <ele>373.597</ele>
        <time>2013-05-06T07:06:56Z</time>
      </trkpt>
      <trkpt lat="44.4143" lon="5.2661">
        <ele>373.058</ele>
        <time>2013-05-06T07:07:03Z</time>
      </trkpt>
      <trkpt lat="44.41442" lon="5.26507">
        <ele>372.339</ele>
        <time>2013-05-06T07:07:14Z</time>
      </trkpt>
      <trkpt lat="44.41434" lon="5.26459">
        <ele>372.239</ele>
        <time>2013-05-06T07:07:19Z</time>
      </trkpt>
      <trkpt lat="44.41412" lon="5.2638">
        <ele>371.507</ele>
        <time>2013-05-06T07:07:27Z</time>
      </trkpt>
      <trkpt lat="44.41373" lon="5.26308">
        <ele>370.749</ele>
        <time>2013-05-06T07:07:35Z</time>
      </trkpt>
      <trkpt lat="44.41338" lon="5.26261">
        <ele>371.936</ele>
        <time>2013-05-06T07:07:42Z</time>
      </trkpt>
      <trkpt lat="44.4129" lon="5.26219">
        <ele>371.083</ele>
        <time>2013-05-06T07:07:50Z</time>
      </trkpt>
      <trkpt lat="44.41283" lon="5.26214">
        <ele>370.846</ele>
        <time>2013-05-06T07:07:51Z</time>
      </trkpt>
      <trkpt lat="44.4126" lon="5.26169">
        <ele>370.693</ele>
        <time>2013-05-06T07:07:56Z</time>
      </trkpt>
      <trkpt lat="44.41237" lon="5.26103">
        <ele>370.281</ele>
        <time>2013-05-06T07:08:03Z</time>
      </trkpt>
      <trkpt lat="44.41201" lon="5.26037">
        <ele>370.19</ele>
        <time>2013-05-06T07:08:11Z</time>
      </trkpt>
      <trkpt lat="44.41185" lon="5.2597">
        <ele>369.293</ele>
        <time>2013-05-06T07:08:18Z</time>
      </trkpt>
      <trkpt lat="44.41171" lon="5.2587">
        <ele>368.597</ele>
        <time>2013-05-06T07:08:28Z</time>
      </trkpt>
      <trkpt lat="44.41155" lon="5.25807">
        <ele>367.272</ele>
        <time>2013-05-06T07:08:35Z</time>
      </trkpt>
      <trkpt lat="44.41155" lon="5.25807">
        <ele>367.676</ele>
        <time>2013-05-06T07:08:36Z</time>
      </trkpt>
      <trkpt lat="44.41107" lon="5.25743">
        <ele>366.865</ele>
        <time>2013-05-06T07:08:44Z</time>
      </trkpt>
      <trkpt lat="44.41085" lon="5.257">
        <ele>366.994</ele>
        <time>2013-05-06T07:08:49Z</time>
      </trkpt>
      <trkpt lat="44.41073" lon="5.25622">
        <ele>366.011</ele>
        <time>2013-05-06T07:08:57Z</time>
      </trkpt>
      <trkpt lat="44.41061" lon="5.25546">
        <ele>366.573</ele>
        <time>2013-05-06T07:09:05Z</time>
      </trkpt>
      <trkpt lat="44.41042" lon="5.2551">
        <ele>365.497</ele>
        <time>2013-05-06T07:09:10Z</time>
      </trkpt>
      <trkpt lat="44.40986" lon="5.25442">
        <ele>366.213</ele>
        <time>2013-05-06T07:09:21Z</time>
      </trkpt>
      <trkpt lat="44.40975" lon="5.25432">
        <ele>366.799</ele>
        <time>2013-05-06T07:09:23Z</time>
      </trkpt>
      <trkpt lat="44.40921" lon="5.25397">
        <ele>366.302</ele>
        <time>2013-05-06T07:09:32Z</time>
      </trkpt>
      <trkpt lat="44.40903" lon="5.25383">
        <ele>365.854</ele>
        <time>2013-05-06T07:09:35Z</time>
      </trkpt>
      <trkpt lat="44.40869" lon="5.2533">
        <ele>364.932</ele>
        <time>2013-05-06T07:09:42Z</time>
      </trkpt>
      <trkpt lat="44.40825" lon="5.25252">
        <ele>364.708</ele>
        <time>2013-05-06T07:09:52Z</time>
      </trkpt>
      <trkpt lat="44.40781" lon="5.25211">
        <ele>364.05</ele>
        <time>2013-05-06T07:10:00Z</time>
      </trkpt>
      <trkpt lat="44.40739" lon="5.25185">
        <ele>363.526</ele>
        <time>2013-05-06T07:10:07Z</time>
      </trkpt>
      <trkpt lat="44.40691" lon="5.2518">
        <ele>363.089</ele>
        <time>2013-05-06T07:10:14Z</time>
      </trkpt>
      <trkpt lat="44.40684" lon="5.25177">
        <ele>361.831</ele>
        <time>2013-05-06T07:10:15Z</time>
      </trkpt>
      <trkpt lat="44.40649" lon="5.25149">
        <ele>361.752</ele>
        <time>2013-05-06T07:10:21Z</time>
      </trkpt>
      <trkpt lat="44.40644" lon="5.25142">
        <ele>361.684</ele>
        <time>2013-05-06T07:10:22Z</time>
      </trkpt>
      <trkpt lat="44.40595" lon="5.25048">
        <ele>362.192</ele>
        <time>2013-05-06T07:10:33Z</time>
      </trkpt>
      <trkpt lat="44.40554" lon="5.25006">
        <ele>361.582</ele>
        <time>2013-05-06T07:10:40Z</time>
      </trkpt>
      <trkpt lat="44.40481" lon="5.24941">
        <ele>359.888</ele>
        <time>2013-05-06T07:10:52Z</time>
      </trkpt>
      <trkpt lat="44.40425" lon="5.24898">
        <ele>360.672</ele>
        <time>2013-05-06T07:11:01Z</time>
      </trkpt>
      <trkpt lat="44.40377" lon="5.24892">
        <ele>359.764</ele>
        <time>2013-05-06T07:11:08Z</time>
      </trkpt>
      <trkpt lat="44.40301" lon="5.24889">
        <ele>359.213</ele>
        <time>2013-05-06T07:11:19Z</time>
      </trkpt>
      <trkpt lat="44.40269" lon="5.24879">
        <ele>358.983</ele>
        <time>2013-05-06T07:11:24Z</time>
      </trkpt>
      <trkpt lat="44.40244" lon="5.24861">
        <ele>357.64</ele>
        <time>2013-05-06T07:11:28Z</time>
      </trkpt>
      <trkpt lat="44.40215" lon="5.24815">
        <ele>357.829</ele>
        <time>2013-05-06T07:11:34Z</time>
      </trkpt>
      <trkpt lat="44.40175" lon="5.24716">
        <ele>357.322</ele>
        <time>2013-05-06T07:11:45Z</time>
      </trkpt>
      <trkpt lat="44.4015" lon="5.24651">
        <ele>357.001</ele>
        <time>2013-05-06T07:11:53Z</time>
      </trkpt>
      <trkpt lat="44.40146" lon="5.24643">
        <ele>356.628</ele>
        <time>2013-05-06T07:11:54Z</time>
      </trkpt>
      <trkpt lat="44.40142" lon="5.24589">
        <ele>356.294</ele>
        <time>2013-05-06T07:12:00Z</time>
      </trkpt>
      <trkpt lat="44.4015" lon="5.24499">
        <ele>356.218</ele>
        <time>2013-05-06T07:12:09Z</time>
      </trkpt>
      <trkpt lat="44.40149" lon="5.24417">
        <ele>355.734</ele>
        <time>2013-05-06T07:12:17Z</time>
      </trkpt>
      <trkpt lat="44.40136" lon="5.24309">
        <ele>355.179</ele>
        <time>2013-05-06T07:12:28Z</time>
      </trkpt>
      <trkpt lat="44.40135" lon="5.24233">
        <ele>354.331</ele>
        <time>2013-05-06T07:12:36Z</time>
      </trkpt>
      <trkpt lat="44.40146" lon="5.24145">
        <ele>352.797</ele>
        <time>2013-05-06T07:12:45Z</time>
      </trkpt>
      <trkpt lat="44.40138" lon="5.24076">
        <ele>353.498</ele>
        <time>2013-05-06T07:12:52Z</time>
      </trkpt>
      <trkpt lat="44.40121" lon="5.2399">
        <ele>353.853</ele>
        <time>2013-05-06T07:13:01Z</time>
      </trkpt>
      <trkpt lat="44.40098" lon="5.23958">
        <ele>353.606</ele>
        <time>2013-05-06T07:13:06Z</time>
      </trkpt>
      <trkpt lat="44.40077" lon="5.23952">
        <ele>353.752</ele>
        <time>2013-05-06T07:13:09Z</time>
      </trkpt>
      <trkpt lat="44.40041" lon="5.23942">
        <ele>353.539</ele>
        <time>2013-05-06T07:13:14Z</time>
      </trkpt>
      <trkpt lat="44.40011" lon="5.23913">
        <ele>352.457</ele>
        <time>2013-05-06T07:13:19Z</time>
      </trkpt>
      <trkpt lat="44.40008" lon="5.23903">
        <ele>353.089</ele>
        <time>2013-05-06T07:13:20Z</time>
      </trkpt>
      <trkpt lat="44.39972" lon="5.23785">
        <ele>353.751</ele>
        <time>2013-05-06T07:13:33Z</time>
      </trkpt>
      <trkpt lat="44.39961" lon="5.23715">
        <ele>353.961</ele>
        <time>2013-05-06T07:13:41Z</time>
      </trkpt>
      <trkpt lat="44.39959" lon="5.23672">
        <ele>354.441</ele>
        <time>2013-05-06T07:13:46Z</time>
      </trkpt>
      <trkpt lat="44.39936" lon="5.23627">
        <ele>354.37</ele>
        <time>2013-05-06T07:13:53Z</time>
      </trkpt>
      <trkpt lat="44.39907" lon="5.23584">
        <ele>353.921</ele>
        <time>2013-05-06T07:14:01Z</time>
      </trkpt>
      <trkpt lat="44.3986" lon="5.23539">
        <ele>353.996</ele>
        <time>2013-05-06T07:14:11Z</time>
      </trkpt>
      <trkpt lat="44.39823" lon="5.2351">
        <ele>352.922</ele>
        <time>2013-05-06T07:14:19Z</time>
      </trkpt>
      <trkpt lat="44.39755" lon="5.23497">
        <ele>352.344</ele>
        <time>2013-05-06T07:14:31Z</time>
      </trkpt>
      <trkpt lat="44.39702" lon="5.23487">
        <ele>352.65</ele>
        <time>2013-05-06T07:14:41Z</time>
      </trkpt>
      <trkpt lat="44.39652" lon="5.23477">
        <ele>352.29</ele>
        <time>2013-05-06T07:14:51Z</time>
      </trkpt>
      <trkpt lat="44.39616" lon="5.23462">
        <ele>352.05</ele>
        <time>2013-05-06T07:14:59Z</time>
      </trkpt>
      <trkpt lat="44.39605" lon="5.23458">
        <ele>350.505</ele>
        <time>2013-05-06T07:15:01Z</time>
      </trkpt>
      <trkpt lat="44.3956" lon="5.23439">
        <ele>351.058</ele>
        <time>2013-05-06T07:15:08Z</time>
      </trkpt>
      <trkpt lat="44.39506" lon="5.23422">
        <ele>352.62</ele>
        <time>2013-05-06T07:15:17Z</time>
      </trkpt>
      <trkpt lat="44.39446" lon="5.23412">
        <ele>352.38</ele>
        <time>2013-05-06T07:15:28Z</time>
      </trkpt>
      <trkpt lat="44.39401" lon="5.23405">
        <ele>351.637</ele>
        <time>2013-05-06T07:15:36Z</time>
      </trkpt>
      <trkpt lat="44.39353" lon="5.23381">
        <ele>349.877</ele>
        <time>2013-05-06T07:15:44Z</time>
      </trkpt>
      <trkpt lat="44.3929" lon="5.23336">
        <ele>348.935</ele>
        <time>2013-05-06T07:15:54Z</time>
      </trkpt>
      <trkpt lat="44.39243" lon="5.23315">
        <ele>349.64</ele>
        <time>2013-05-06T07:16:01Z</time>
      </trkpt>
      <trkpt lat="44.39176" lon="5.23306">
        <ele>349.375</ele>
        <time>2013-05-06T07:16:11Z</time>
      </trkpt>
      <trkpt lat="44.39085" lon="5.23298">
        <ele>348.464</ele>
        <time>2013-05-06T07:16:25Z</time>
      </trkpt>
      <trkpt lat="44.3903" lon="5.23301">
        <ele>346.651</ele>
        <time>2013-05-06T07:16:35Z</time>
      </trkpt>
      <trkpt lat="44.38947" lon="5.23294">
        <ele>346.811</ele>
        <time>2013-05-06T07:16:46Z</time>
      </trkpt>
      <trkpt lat="44.38884" lon="5.23284">
        <ele>346.495</ele>
        <time>2013-05-06T07:16:57Z</time>
      </trkpt>
      <trkpt lat="44.38884" lon="5.23284">
        <ele>346.638</ele>
        <time>2013-05-06T07:16:59Z</time>
      </trkpt>
      <trkpt lat="44.3885" lon="5.23277">
        <ele>346.311</ele>
        <time>2013-05-06T07:17:02Z</time>
      </trkpt>
      <trkpt lat="44.3883" lon="5.23273">
        <ele>346.685</ele>
        <time>2013-05-06T07:17:06Z</time>
      </trkpt>
      <trkpt lat="44.38816" lon="5.23295">
        <ele>346.676</ele>
        <time>2013-05-06T07:17:11Z</time>
      </trkpt>
      <trkpt lat="44.38815" lon="5.23306">
        <ele>346.66</ele>
        <time>2013-05-06T07:17:13Z</time>
      </trkpt>
      <trkpt lat="44.38807" lon="5.23362">
        <ele>346.035</ele>
        <time>2013-05-06T07:17:22Z</time>
      </trkpt>
      <trkpt lat="44.38803" lon="5.23389">
        <ele>346.258</ele>
        <time>2013-05-06T07:17:26Z</time>
      </trkpt>
      <trkpt lat="44.38799" lon="5.23417">
        <ele>347.547</ele>
        <time>2013-05-06T07:17:32Z</time>
      </trkpt>
      <trkpt lat="44.38798" lon="5.23423">
        <ele>347.28</ele>
        <time>2013-05-06T07:17:38Z</time>
      </trkpt>
      <trkpt lat="44.38798" lon="5.23423">
        <ele>346.986</ele>
        <time>2013-05-06T07:18:10Z</time>
      </trkpt>
      <trkpt lat="44.38798" lon="5.23423">
        <ele>346.738</ele>
        <time>2013-05-06T07:18:27Z</time>
      </trkpt>
      <trkpt lat="44.38798" lon="5.23423">
        <ele>347.458</ele>
        <time>2013-05-06T07:19:33Z</time>
      </trkpt>
      <trkpt lat="44.38798" lon="5.23423">
        <ele>347.093</ele>
        <time>2013-05-06T07:20:17Z</time>
      </trkpt>
      <trkpt lat="44.38798" lon="5.23423">
        <ele>346.655</ele>
        <time>2013-05-06T07:20:33Z</time>
      </trkpt>
      <trkpt lat="44.38798" lon="5.23423">
        <ele>346.298</ele>
        <time>2013-05-06T07:20:43Z</time>
      </trkpt>
      <trkpt lat="44.38795" lon="5.23439">
        <ele>346.919</ele>
        <time>2013-05-06T07:20:50Z</time>
      </trkpt>
      <trkpt lat="44.3879" lon="5.23461">
        <ele>347.565</ele>
        <time>2013-05-06T07:20:56Z</time>
      </trkpt>
      <trkpt lat="44.38776" lon="5.23508">
        <ele>348.285</ele>
        <time>2013-05-06T07:21:07Z</time>
      </trkpt>
      <trkpt lat="44.38764" lon="5.2355">
        <ele>348.491</ele>
        <time>2013-05-06T07:21:15Z</time>
      </trkpt>
      <trkpt lat="44.38744" lon="5.23594">
        <ele>349.898</ele>
        <time>2013-05-06T07:21:24Z</time>
      </trkpt>
      <trkpt lat="44.38719" lon="5.23643">
        <ele>350.758</ele>
        <time>2013-05-06T07:21:34Z</time>
      </trkpt>
      <trkpt lat="44.38694" lon="5.23698">
        <ele>352.532</ele>
        <time>2013-05-06T07:21:44Z</time>
      </trkpt>
      <trkpt lat="44.38685" lon="5.23753">
        <ele>352.388</ele>
        <time>2013-05-06T07:21:52Z</time>
      </trkpt>
      <trkpt lat="44.38671" lon="5.23828">
        <ele>351.563</ele>
        <time>2013-05-06T07:22:02Z</time>
      </trkpt>
      <trkpt lat="44.38646" lon="5.23914">
        <ele>350.92</ele>
        <time>2013-05-06T07:22:13Z</time>
      </trkpt>
      <trkpt lat="44.38615" lon="5.23971">
        <ele>350.217</ele>
        <time>2013-05-06T07:22:21Z</time>
      </trkpt>
      <trkpt lat="44.38567" lon="5.24051">
        <ele>349.645</ele>
        <time>2013-05-06T07:22:32Z</time>
      </trkpt>
      <trkpt lat="44.38511" lon="5.24128">
        <ele>349.864</ele>
        <time>2013-05-06T07:22:43Z</time>
      </trkpt>
      <trkpt lat="44.38435" lon="5.24222">
        <ele>349.29</ele>
        <time>2013-05-06T07:22:57Z</time>
      </trkpt>
      <trkpt lat="44.38388" lon="5.24276">
        <ele>349.06</ele>
        <time>2013-05-06T07:23:05Z</time>
      </trkpt>
      <trkpt lat="44.3834" lon="5.24329">
        <ele>348.948</ele>
        <time>2013-05-06T07:23:13Z</time>
      </trkpt>
      <trkpt lat="44.38298" lon="5.24352">
        <ele>350.353</ele>
        <time>2013-05-06T07:23:19Z</time>
      </trkpt>
      <trkpt lat="44.38266" lon="5.24369">
        <ele>351.919</ele>
        <time>2013-05-06T07:23:24Z</time>
      </trkpt>
      <trkpt lat="44.38192" lon="5.24395">
        <ele>354.525</ele>
        <time>2013-05-06T07:23:36Z</time>
      </trkpt>
      <trkpt lat="44.38119" lon="5.24414">
        <ele>357.114</ele>
        <time>2013-05-06T07:23:49Z</time>
      </trkpt>
      <trkpt lat="44.38108" lon="5.24417">
        <ele>357.256</ele>
        <time>2013-05-06T07:23:51Z</time>
      </trkpt>
      <trkpt lat="44.38087" lon="5.24437">
        <ele>357.34</ele>
        <time>2013-05-06T07:23:56Z</time>
      </trkpt>
      <trkpt lat="44.38054" lon="5.24488">
        <ele>357.423</ele>
        <time>2013-05-06T07:24:05Z</time>
      </trkpt>
      <trkpt lat="44.38024" lon="5.2452">
        <ele>358.001</ele>
        <time>2013-05-06T07:24:13Z</time>
      </trkpt>
      <trkpt lat="44.38008" lon="5.24532">
        <ele>357.737</ele>
        <time>2013-05-06T07:24:17Z</time>
      </trkpt>
      <trkpt lat="44.37955" lon="5.24569">
        <ele>357.691</ele>
        <time>2013-05-06T07:24:28Z</time>
      </trkpt>
      <trkpt lat="44.37904" lon="5.24606">
        <ele>358.549</ele>
        <time>2013-05-06T07:24:38Z</time>
      </trkpt>
      <trkpt lat="44.37871" lon="5.24647">
        <ele>359.461</ele>
        <time>2013-05-06T07:24:46Z</time>
      </trkpt>
      <trkpt lat="44.37832" lon="5.247">
        <ele>360.055</ele>
        <time>2013-05-06T07:24:55Z</time>
      </trkpt>
      <trkpt lat="44.37779" lon="5.24774">
        <ele>361.259</ele>
        <time>2013-05-06T07:25:08Z</time>
      </trkpt>
      <trkpt lat="44.37718" lon="5.24857">
        <ele>363.964</ele>
        <time>2013-05-06T07:25:23Z</time>
      </trkpt>
      <trkpt lat="44.37682" lon="5.24907">
        <ele>364.57</ele>
        <time>2013-05-06T07:25:32Z</time>
      </trkpt>
      <trkpt lat="44.37635" lon="5.24971">
        <ele>365.731</ele>
        <time>2013-05-06T07:25:43Z</time>
      </trkpt>
      <trkpt lat="44.37592" lon="5.25031">
        <ele>366.321</ele>
        <time>2013-05-06T07:25:53Z</time>
      </trkpt>
      <trkpt lat="44.37556" lon="5.25074">
        <ele>368.444</ele>
        <time>2013-05-06T07:26:01Z</time>
      </trkpt>
      <trkpt lat="44.37517" lon="5.25116">
        <ele>368.387</ele>
        <time>2013-05-06T07:26:09Z</time>
      </trkpt>
      <trkpt lat="44.3751" lon="5.2513">
        <ele>369.423</ele>
        <time>2013-05-06T07:26:11Z</time>
      </trkpt>
      <trkpt lat="44.37481" lon="5.25215">
        <ele>369.517</ele>
        <time>2013-05-06T07:26:22Z</time>
      </trkpt>
      <trkpt lat="44.37456" lon="5.25295">
        <ele>370.067</ele>
        <time>2013-05-06T07:26:32Z</time>
      </trkpt>
      <trkpt lat="44.37432" lon="5.25337">
        <ele>370.699</ele>
        <time>2013-05-06T07:26:38Z</time>
      </trkpt>
      <trkpt lat="44.3739" lon="5.25368">
        <ele>372.14</ele>
        <time>2013-05-06T07:26:46Z</time>
      </trkpt>
      <trkpt lat="44.3735" lon="5.25383">
        <ele>373.221</ele>
        <time>2013-05-06T07:26:53Z</time>
      </trkpt>
      <trkpt lat="44.37295" lon="5.25385">
        <ele>374.89</ele>
        <time>2013-05-06T07:27:02Z</time>
      </trkpt>
      <trkpt lat="44.37248" lon="5.25388">
        <ele>375.794</ele>
        <time>2013-05-06T07:27:10Z</time>
      </trkpt>
      <trkpt lat="44.3722" lon="5.25408">
        <ele>376.638</ele>
        <time>2013-05-06T07:27:16Z</time>
      </trkpt>
      <trkpt lat="44.37214" lon="5.25419">
        <ele>376.77</ele>
        <time>2013-05-06T07:27:18Z</time>
      </trkpt>
      <trkpt lat="44.37182" lon="5.25486">
        <ele>376.917</ele>
        <time>2013-05-06T07:27:29Z</time>
      </trkpt>
      <trkpt lat="44.37168" lon="5.25516">
        <ele>378.106</ele>
        <time>2013-05-06T07:27:33Z</time>
      </trkpt>
      <trkpt lat="44.37116" lon="5.25623">
        <ele>378.241</ele>
        <time>2013-05-06T07:27:48Z</time>
      </trkpt>
      <trkpt lat="44.37079" lon="5.25717">
        <ele>379.395</ele>
        <time>2013-05-06T07:28:00Z</time>
      </trkpt>
      <trkpt lat="44.37042" lon="5.2582">
        <ele>380.166</ele>
        <time>2013-05-06T07:28:13Z</time>
      </trkpt>
      <trkpt lat="44.37009" lon="5.25901">
        <ele>380.383</ele>
        <time>2013-05-06T07:28:23Z</time>
      </trkpt>
      <trkpt lat="44.36966" lon="5.25993">
        <ele>380.693</ele>
        <time>2013-05-06T07:28:34Z</time>
      </trkpt>
      <trkpt lat="44.36929" lon="5.2605">
        <ele>380.38</ele>
        <time>2013-05-06T07:28:42Z</time>
      </trkpt>
      <trkpt lat="44.36893" lon="5.26091">
        <ele>382.102</ele>
        <time>2013-05-06T07:28:49Z</time>
      </trkpt>
      <trkpt lat="44.36877" lon="5.26109">
        <ele>383.477</ele>
        <time>2013-05-06T07:28:53Z</time>
      </trkpt>
      <trkpt lat="44.36843" lon="5.26148">
        <ele>384.602</ele>
        <time>2013-05-06T07:29:03Z</time>
      </trkpt>
      <trkpt lat="44.36798" lon="5.26201">
        <ele>384.614</ele>
        <time>2013-05-06T07:29:16Z</time>
      </trkpt>
      <trkpt lat="44.36758" lon="5.26246">
        <ele>386.845</ele>
        <time>2013-05-06T07:29:27Z</time>
      </trkpt>
      <trkpt lat="44.3671" lon="5.26296">
        <ele>386.571</ele>
        <time>2013-05-06T07:29:39Z</time>
      </trkpt>
      <trkpt lat="44.36695" lon="5.26306">
        <ele>386.443</ele>
        <time>2013-05-06T07:29:42Z</time>
      </trkpt>
      <trkpt lat="44.36655" lon="5.26316">
        <ele>387.385</ele>
        <time>2013-05-06T07:29:50Z</time>
      </trkpt>
      <trkpt lat="44.36595" lon="5.26321">
        <ele>388.179</ele>
        <time>2013-05-06T07:30:02Z</time>
      </trkpt>
      <trkpt lat="44.36557" lon="5.26341">
        <ele>389.889</ele>
        <time>2013-05-06T07:30:10Z</time>
      </trkpt>
      <trkpt lat="44.36522" lon="5.26376">
        <ele>390.378</ele>
        <time>2013-05-06T07:30:19Z</time>
      </trkpt>
      <trkpt lat="44.36487" lon="5.26403">
        <ele>391.251</ele>
        <time>2013-05-06T07:30:28Z</time>
      </trkpt>
      <trkpt lat="44.36458" lon="5.26422">
        <ele>392.668</ele>
        <time>2013-05-06T07:30:36Z</time>
      </trkpt>
      <trkpt lat="44.36426" lon="5.26448">
        <ele>393.032</ele>
        <time>2013-05-06T07:30:44Z</time>
      </trkpt>
      <trkpt lat="44.36402" lon="5.26496">
        <ele>393.349</ele>
        <time>2013-05-06T07:30:52Z</time>
      </trkpt>
      <trkpt lat="44.36375" lon="5.26557">
        <ele>394.399</ele>
        <time>2013-05-06T07:31:01Z</time>
      </trkpt>
      <trkpt lat="44.36333" lon="5.2663">
        <ele>395.154</ele>
        <time>2013-05-06T07:31:13Z</time>
      </trkpt>
      <trkpt lat="44.36286" lon="5.26679">
        <ele>395.834</ele>
        <time>2013-05-06T07:31:23Z</time>
      </trkpt>
      <trkpt lat="44.36234" lon="5.26729">
        <ele>397.245</ele>
        <time>2013-05-06T07:31:34Z</time>
      </trkpt>
      <trkpt lat="44.36184" lon="5.26774">
        <ele>398.058</ele>
        <time>2013-05-06T07:31:44Z</time>
      </trkpt>
      <trkpt lat="44.3612" lon="5.26811">
        <ele>399.474</ele>
        <time>2013-05-06T07:31:55Z</time>
      </trkpt>
      <trkpt lat="44.36055" lon="5.26824">
        <ele>401.076</ele>
        <time>2013-05-06T07:32:05Z</time>
      </trkpt>
      <trkpt lat="44.35972" lon="5.26822">
        <ele>401.369</ele>
        <time>2013-05-06T07:32:18Z</time>
      </trkpt>
      <trkpt lat="44.35895" lon="5.26821">
        <ele>399.702</ele>
        <time>2013-05-06T07:32:29Z</time>
      </trkpt>
      <trkpt lat="44.35887" lon="5.26821">
        <ele>399.626</ele>
        <time>2013-05-06T07:32:30Z</time>
      </trkpt>
      <trkpt lat="44.3588" lon="5.2682">
        <ele>398.726</ele>
        <time>2013-05-06T07:32:31Z</time>
      </trkpt>
      <trkpt lat="44.35845" lon="5.26834">
        <ele>398.376</ele>
        <time>2013-05-06T07:32:36Z</time>
      </trkpt>
      <trkpt lat="44.35825" lon="5.26866">
        <ele>399</ele>
        <time>2013-05-06T07:32:40Z</time>
      </trkpt>
      <trkpt lat="44.35767" lon="5.26986">
        <ele>398.143</ele>
        <time>2013-05-06T07:32:53Z</time>
      </trkpt>
      <trkpt lat="44.35719" lon="5.2708">
        <ele>397.983</ele>
        <time>2013-05-06T07:33:04Z</time>
      </trkpt>
      <trkpt lat="44.3571" lon="5.27097">
        <ele>399.126</ele>
        <time>2013-05-06T07:33:06Z</time>
      </trkpt>
      <trkpt lat="44.35679" lon="5.27167">
        <ele>399.84</ele>
        <time>2013-05-06T07:33:14Z</time>
      </trkpt>
      <trkpt lat="44.35653" lon="5.27237">
        <ele>398.328</ele>
        <time>2013-05-06T07:33:21Z</time>
      </trkpt>
      <trkpt lat="44.35622" lon="5.27293">
        <ele>397.804</ele>
        <time>2013-05-06T07:33:27Z</time>
      </trkpt>
      <trkpt lat="44.35553" lon="5.27384">
        <ele>398.311</ele>
        <time>2013-05-06T07:33:38Z</time>
      </trkpt>
      <trkpt lat="44.35516" lon="5.27432">
        <ele>401.276</ele>
        <time>2013-05-06T07:33:45Z</time>
      </trkpt>
      <trkpt lat="44.35469" lon="5.27495">
        <ele>399.668</ele>
        <time>2013-05-06T07:33:54Z</time>
      </trkpt>
      <trkpt lat="44.35414" lon="5.27559">
        <ele>398.106</ele>
        <time>2013-05-06T07:34:03Z</time>
      </trkpt>
      <trkpt lat="44.35359" lon="5.27611">
        <ele>400.234</ele>
        <time>2013-05-06T07:34:12Z</time>
      </trkpt>
      <trkpt lat="44.35311" lon="5.27656">
        <ele>399.78</ele>
        <time>2013-05-06T07:34:21Z</time>
      </trkpt>
      <trkpt lat="44.35271" lon="5.27693">
        <ele>399.222</ele>
        <time>2013-05-06T07:34:28Z</time>
      </trkpt>
      <trkpt lat="44.35259" lon="5.27704">
        <ele>398.39</ele>
        <time>2013-05-06T07:34:30Z</time>
      </trkpt>
      <trkpt lat="44.35221" lon="5.27762">
        <ele>398.742</ele>
        <time>2013-05-06T07:34:38Z</time>
      </trkpt>
      <trkpt lat="44.35208" lon="5.27786">
        <ele>400.065</ele>
        <time>2013-05-06T07:34:41Z</time>
      </trkpt>
      <trkpt lat="44.35156" lon="5.27884">
        <ele>401.123</ele>
        <time>2013-05-06T07:34:53Z</time>
      </trkpt>
      <trkpt lat="44.35147" lon="5.279">
        <ele>401.685</ele>
        <time>2013-05-06T07:34:55Z</time>
      </trkpt>
      <trkpt lat="44.35102" lon="5.27936">
        <ele>401.812</ele>
        <time>2013-05-06T07:35:02Z</time>
      </trkpt>
      <trkpt lat="44.35027" lon="5.27982">
        <ele>402.608</ele>
        <time>2013-05-06T07:35:13Z</time>
      </trkpt>
      <trkpt lat="44.34964" lon="5.2802">
        <ele>404.532</ele>
        <time>2013-05-06T07:35:24Z</time>
      </trkpt>
      <trkpt lat="44.34916" lon="5.2805">
        <ele>405.439</ele>
        <time>2013-05-06T07:35:33Z</time>
      </trkpt>
      <trkpt lat="44.34855" lon="5.281">
        <ele>406.865</ele>
        <time>2013-05-06T07:35:45Z</time>
      </trkpt>
      <trkpt lat="44.34841" lon="5.28126">
        <ele>408.152</ele>
        <time>2013-05-06T07:35:49Z</time>
      </trkpt>
      <trkpt lat="44.34823" lon="5.28182">
        <ele>407.695</ele>
        <time>2013-05-06T07:35:56Z</time>
      </trkpt>
      <trkpt lat="44.34808" lon="5.28236">
        <ele>408.904</ele>
        <time>2013-05-06T07:36:03Z</time>
      </trkpt>
      <trkpt lat="44.34803" lon="5.28252">
        <ele>408.741</ele>
        <time>2013-05-06T07:36:05Z</time>
      </trkpt>
      <trkpt lat="44.34776" lon="5.28292">
        <ele>408.925</ele>
        <time>2013-05-06T07:36:11Z</time>
      </trkpt>
      <trkpt lat="44.3476" lon="5.28305">
        <ele>409.151</ele>
        <time>2013-05-06T07:36:15Z</time>
      </trkpt>
      <trkpt lat="44.34735" lon="5.28309">
        <ele>409.735</ele>
        <time>2013-05-06T07:36:18Z</time>
      </trkpt>
      <trkpt lat="44.34716" lon="5.28307">
        <ele>409.942</ele>
        <time>2013-05-06T07:36:21Z</time>
      </trkpt>
      <trkpt lat="44.34644" lon="5.28299">
        <ele>410.06</ele>
        <time>2013-05-06T07:36:32Z</time>
      </trkpt>
      <trkpt lat="44.34587" lon="5.28286">
        <ele>410.864</ele>
        <time>2013-05-06T07:36:41Z</time>
      </trkpt>
      <trkpt lat="44.34568" lon="5.28282">
        <ele>411.186</ele>
        <time>2013-05-06T07:36:44Z</time>
      </trkpt>
      <trkpt lat="44.34535" lon="5.28288">
        <ele>412.698</ele>
        <time>2013-05-06T07:36:51Z</time>
      </trkpt>
      <trkpt lat="44.34512" lon="5.28298">
        <ele>413.895</ele>
        <time>2013-05-06T07:37:00Z</time>
      </trkpt>
      <trkpt lat="44.34512" lon="5.28298">
        <ele>413.952</ele>
        <time>2013-05-06T07:37:12Z</time>
      </trkpt>
      <trkpt lat="44.34512" lon="5.28298">
        <ele>413.855</ele>
        <time>2013-05-06T07:37:24Z</time>
      </trkpt>
      <trkpt lat="44.34512" lon="5.28298">
        <ele>413.725</ele>
        <time>2013-05-06T07:37:49Z</time>
      </trkpt>
      <trkpt lat="44.34512" lon="5.28298">
        <ele>413.82</ele>
        <time>2013-05-06T07:38:19Z</time>
      </trkpt>
      <trkpt lat="44.34512" lon="5.28298">
        <ele>413.543</ele>
        <time>2013-05-06T07:38:48Z</time>
      </trkpt>
      <trkpt lat="44.34512" lon="5.28298">
        <ele>414.092</ele>
        <time>2013-05-06T07:39:26Z</time>
      </trkpt>
      <trkpt lat="44.34512" lon="5.28298">
        <ele>414.547</ele>
        <time>2013-05-06T07:40:58Z</time>
      </trkpt>
      <trkpt lat="44.34512" lon="5.28298">
        <ele>414.454</ele>
        <time>2013-05-06T07:41:08Z</time>
      </trkpt>
      <trkpt lat="44.34512" lon="5.28298">
        <ele>414.665</ele>
        <time>2013-05-06T07:41:16Z</time>
      </trkpt>
      <trkpt lat="44.34512" lon="5.28298">
        <ele>414.521</ele>
        <time>2013-05-06T07:41:28Z</time>
      </trkpt>
      <trkpt lat="44.34493" lon="5.28307">
        <ele>414.701</ele>
        <time>2013-05-06T07:41:36Z</time>
      </trkpt>
      <trkpt lat="44.34489" lon="5.28308">
        <ele>414.73</ele>
        <time>2013-05-06T07:41:38Z</time>
      </trkpt>
      <trkpt lat="44.34472" lon="5.28323">
        <ele>414.714</ele>
        <time>2013-05-06T07:41:47Z</time>
      </trkpt>
      <trkpt lat="44.34458" lon="5.28357">
        <ele>414.604</ele>
        <time>2013-05-06T07:41:56Z</time>
      </trkpt>
      <trkpt lat="44.34451" lon="5.28385">
        <ele>415.116</ele>
        <time>2013-05-06T07:42:03Z</time>
      </trkpt>
      <trkpt lat="44.34451" lon="5.28396">
        <ele>415.353</ele>
        <time>2013-05-06T07:42:06Z</time>
      </trkpt>
      <trkpt lat="44.34441" lon="5.28396">
        <ele>414.617</ele>
        <time>2013-05-06T07:42:11Z</time>
      </trkpt>
      <trkpt lat="44.34438" lon="5.28395">
        <ele>414.638</ele>
        <time>2013-05-06T07:42:12Z</time>
      </trkpt>
      <trkpt lat="44.34419" lon="5.28388">
        <ele>413.547</ele>
        <time>2013-05-06T07:42:17Z</time>
      </trkpt>
      <trkpt lat="44.34382" lon="5.28375">
        <ele>411.554</ele>
        <time>2013-05-06T07:42:25Z</time>
      </trkpt>
      <trkpt lat="44.34342" lon="5.28361">
        <ele>410.854</ele>
        <time>2013-05-06T07:42:33Z</time>
      </trkpt>
      <trkpt lat="44.34305" lon="5.28347">
        <ele>411.284</ele>
        <time>2013-05-06T07:42:41Z</time>
      </trkpt>
      <trkpt lat="44.34286" lon="5.28341">
        <ele>411.356</ele>
        <time>2013-05-06T07:42:45Z</time>
      </trkpt>
      <trkpt lat="44.3426" lon="5.28332">
        <ele>413.434</ele>
        <time>2013-05-06T07:42:51Z</time>
      </trkpt>
      <trkpt lat="44.34234" lon="5.2832">
        <ele>414.926</ele>
        <time>2013-05-06T07:42:58Z</time>
      </trkpt>
      <trkpt lat="44.34208" lon="5.28309">
        <ele>416.675</ele>
        <time>2013-05-06T07:43:05Z</time>
      </trkpt>
      <trkpt lat="44.34165" lon="5.2829">
        <ele>415.857</ele>
        <time>2013-05-06T07:43:16Z</time>
      </trkpt>
      <trkpt lat="44.34156" lon="5.28286">
        <ele>415.991</ele>
        <time>2013-05-06T07:43:18Z</time>
      </trkpt>
      <trkpt lat="44.34147" lon="5.28261">
        <ele>416.186</ele>
        <time>2013-05-06T07:43:23Z</time>
      </trkpt>
      <trkpt lat="44.34148" lon="5.28255">
        <ele>416.254</ele>
        <time>2013-05-06T07:43:24Z</time>
      </trkpt>
      <trkpt lat="44.34155" lon="5.28208">
        <ele>420.115</ele>
        <time>2013-05-06T07:43:34Z</time>
      </trkpt>
      <trkpt lat="44.34151" lon="5.28182">
        <ele>421.644</ele>
        <time>2013-05-06T07:43:40Z</time>
      </trkpt>
      <trkpt lat="44.34123" lon="5.28138">
        <ele>422.643</ele>
        <time>2013-05-06T07:43:52Z</time>
      </trkpt>
      <trkpt lat="44.34088" lon="5.28093">
        <ele>423.629</ele>
        <time>2013-05-06T07:44:05Z</time>
      </trkpt>
      <trkpt lat="44.34057" lon="5.2808">
        <ele>423.401</ele>
        <time>2013-05-06T07:44:13Z</time>
      </trkpt>
      <trkpt lat="44.34017" lon="5.2808">
        <ele>424.029</ele>
        <time>2013-05-06T07:44:22Z</time>
      </trkpt>
      <trkpt lat="44.33954" lon="5.28088">
        <ele>423.148</ele>
        <time>2013-05-06T07:44:35Z</time>
      </trkpt>
      <trkpt lat="44.33888" lon="5.28091">
        <ele>424.199</ele>
        <time>2013-05-06T07:44:48Z</time>
      </trkpt>
      <trkpt lat="44.33848" lon="5.28075">
        <ele>424.205</ele>
        <time>2013-05-06T07:44:56Z</time>
      </trkpt>
      <trkpt lat="44.33774" lon="5.28045">
        <ele>426.377</ele>
        <time>2013-05-06T07:45:11Z</time>
      </trkpt>
      <trkpt lat="44.33736" lon="5.28016">
        <ele>428.559</ele>
        <time>2013-05-06T07:45:21Z</time>
      </trkpt>
      <trkpt lat="44.33701" lon="5.27982">
        <ele>431.97</ele>
        <time>2013-05-06T07:45:33Z</time>
      </trkpt>
      <trkpt lat="44.33663" lon="5.27946">
        <ele>435.015</ele>
        <time>2013-05-06T07:45:47Z</time>
      </trkpt>
      <trkpt lat="44.33635" lon="5.27919">
        <ele>437.842</ele>
        <time>2013-05-06T07:45:58Z</time>
      </trkpt>
      <trkpt lat="44.33629" lon="5.27913">
        <ele>438.482</ele>
        <time>2013-05-06T07:46:02Z</time>
      </trkpt>
      <trkpt lat="44.33626" lon="5.27911">
        <ele>439.051</ele>
        <time>2013-05-06T07:46:08Z</time>
      </trkpt>
      <trkpt lat="44.33626" lon="5.27911">
        <ele>438.599</ele>
        <time>2013-05-06T07:46:26Z</time>
      </trkpt>
      <trkpt lat="44.33626" lon="5.27911">
        <ele>438.875</ele>
        <time>2013-05-06T07:47:04Z</time>
      </trkpt>
      <trkpt lat="44.33626" lon="5.27911">
        <ele>438.964</ele>
        <time>2013-05-06T07:47:11Z</time>
      </trkpt>
      <trkpt lat="44.33613" lon="5.27898">
        <ele>439.755</ele>
        <time>2013-05-06T07:47:20Z</time>
      </trkpt>
      <trkpt lat="44.33608" lon="5.27893">
        <ele>439.824</ele>
        <time>2013-05-06T07:47:23Z</time>
      </trkpt>
      <trkpt lat="44.33601" lon="5.27887">
        <ele>440.381</ele>
        <time>2013-05-06T07:47:27Z</time>
      </trkpt>
      <trkpt lat="44.33579" lon="5.27866">
        <ele>441.88</ele>
        <time>2013-05-06T07:47:36Z</time>
      </trkpt>
      <trkpt lat="44.33557" lon="5.27863">
        <ele>443.343</ele>
        <time>2013-05-06T07:47:43Z</time>
      </trkpt>
      <trkpt lat="44.33541" lon="5.2788">
        <ele>444.908</ele>
        <time>2013-05-06T07:47:49Z</time>
      </trkpt>
      <trkpt lat="44.3353" lon="5.27922">
        <ele>446.438</ele>
        <time>2013-05-06T07:47:58Z</time>
      </trkpt>
      <trkpt lat="44.33519" lon="5.27965">
        <ele>449.927</ele>
        <time>2013-05-06T07:48:08Z</time>
      </trkpt>
      <trkpt lat="44.33506" lon="5.28015">
        <ele>451.92</ele>
        <time>2013-05-06T07:48:20Z</time>
      </trkpt>
      <trkpt lat="44.3349" lon="5.28039">
        <ele>453.516</ele>
        <time>2013-05-06T07:48:28Z</time>
      </trkpt>
      <trkpt lat="44.33479" lon="5.28027">
        <ele>455.155</ele>
        <time>2013-05-06T07:48:32Z</time>
      </trkpt>
      <trkpt lat="44.33468" lon="5.27996">
        <ele>458.235</ele>
        <time>2013-05-06T07:48:38Z</time>
      </trkpt>
      <trkpt lat="44.33456" lon="5.27961">
        <ele>458.972</ele>
        <time>2013-05-06T07:48:47Z</time>
      </trkpt>
      <trkpt lat="44.33441" lon="5.27921">
        <ele>460.864</ele>
        <time>2013-05-06T07:48:58Z</time>
      </trkpt>
      <trkpt lat="44.33425" lon="5.27875">
        <ele>462.168</ele>
        <time>2013-05-06T07:49:10Z</time>
      </trkpt>
      <trkpt lat="44.3341" lon="5.27831">
        <ele>464.842</ele>
        <time>2013-05-06T07:49:22Z</time>
      </trkpt>
      <trkpt lat="44.33396" lon="5.27791">
        <ele>466.913</ele>
        <time>2013-05-06T07:49:33Z</time>
      </trkpt>
      <trkpt lat="44.33391" lon="5.27777">
        <ele>468.285</ele>
        <time>2013-05-06T07:49:37Z</time>
      </trkpt>
      <trkpt lat="44.33368" lon="5.27754">
        <ele>470.628</ele>
        <time>2013-05-06T07:49:47Z</time>
      </trkpt>
      <trkpt lat="44.3335" lon="5.2774">
        <ele>471.738</ele>
        <time>2013-05-06T07:49:54Z</time>
      </trkpt>
      <trkpt lat="44.33324" lon="5.27721">
        <ele>473.414</ele>
        <time>2013-05-06T07:50:04Z</time>
      </trkpt>
      <trkpt lat="44.33301" lon="5.27704">
        <ele>475.831</ele>
        <time>2013-05-06T07:50:13Z</time>
      </trkpt>
      <trkpt lat="44.33289" lon="5.27677">
        <ele>478.023</ele>
        <time>2013-05-06T07:50:20Z</time>
      </trkpt>
      <trkpt lat="44.33283" lon="5.27642">
        <ele>478.77</ele>
        <time>2013-05-06T07:50:29Z</time>
      </trkpt>
      <trkpt lat="44.33276" lon="5.27603">
        <ele>479.837</ele>
        <time>2013-05-06T07:50:39Z</time>
      </trkpt>
      <trkpt lat="44.33258" lon="5.27563">
        <ele>481.802</ele>
        <time>2013-05-06T07:50:51Z</time>
      </trkpt>
      <trkpt lat="44.33256" lon="5.27536">
        <ele>483.52</ele>
        <time>2013-05-06T07:50:59Z</time>
      </trkpt>
      <trkpt lat="44.33269" lon="5.27524">
        <ele>484.844</ele>
        <time>2013-05-06T07:51:05Z</time>
      </trkpt>
      <trkpt lat="44.33282" lon="5.27519">
        <ele>485.838</ele>
        <time>2013-05-06T07:51:10Z</time>
      </trkpt>
      <trkpt lat="44.333" lon="5.27512">
        <ele>487.487</ele>
        <time>2013-05-06T07:51:17Z</time>
      </trkpt>
      <trkpt lat="44.33318" lon="5.27491">
        <ele>489.216</ele>
        <time>2013-05-06T07:51:26Z</time>
      </trkpt>
      <trkpt lat="44.33322" lon="5.27466">
        <ele>490.565</ele>
        <time>2013-05-06T07:51:33Z</time>
      </trkpt>
      <trkpt lat="44.33316" lon="5.27443">
        <ele>493.005</ele>
        <time>2013-05-06T07:51:40Z</time>
      </trkpt>
      <trkpt lat="44.33306" lon="5.27412">
        <ele>494.056</ele>
        <time>2013-05-06T07:51:49Z</time>
      </trkpt>
      <trkpt lat="44.33297" lon="5.27365">
        <ele>495.893</ele>
        <time>2013-05-06T07:52:01Z</time>
      </trkpt>
      <trkpt lat="44.3329" lon="5.27318">
        <ele>498.614</ele>
        <time>2013-05-06T07:52:13Z</time>
      </trkpt>
      <trkpt lat="44.33284" lon="5.27276">
        <ele>499.958</ele>
        <time>2013-05-06T07:52:24Z</time>
      </trkpt>
      <trkpt lat="44.33293" lon="5.27247">
        <ele>501.333</ele>
        <time>2013-05-06T07:52:33Z</time>
      </trkpt>
      <trkpt lat="44.33312" lon="5.27237">
        <ele>502.332</ele>
        <time>2013-05-06T07:52:40Z</time>
      </trkpt>
      <trkpt lat="44.33336" lon="5.27226">
        <ele>505.502</ele>
        <time>2013-05-06T07:52:49Z</time>
      </trkpt>
      <trkpt lat="44.33348" lon="5.27193">
        <ele>506.672</ele>
        <time>2013-05-06T07:52:58Z</time>
      </trkpt>
      <trkpt lat="44.33346" lon="5.2716">
        <ele>507.931</ele>
        <time>2013-05-06T07:53:07Z</time>
      </trkpt>
      <trkpt lat="44.33334" lon="5.27137">
        <ele>509.562</ele>
        <time>2013-05-06T07:53:16Z</time>
      </trkpt>
      <trkpt lat="44.33317" lon="5.27115">
        <ele>511.682</ele>
        <time>2013-05-06T07:53:24Z</time>
      </trkpt>
      <trkpt lat="44.33298" lon="5.27092">
        <ele>512.638</ele>
        <time>2013-05-06T07:53:33Z</time>
      </trkpt>
      <trkpt lat="44.33274" lon="5.27071">
        <ele>514.196</ele>
        <time>2013-05-06T07:53:44Z</time>
      </trkpt>
      <trkpt lat="44.33256" lon="5.27056">
        <ele>515.817</ele>
        <time>2013-05-06T07:53:52Z</time>
      </trkpt>
      <trkpt lat="44.3325" lon="5.27042">
        <ele>517.435</ele>
        <time>2013-05-06T07:53:58Z</time>
      </trkpt>
      <trkpt lat="44.3325" lon="5.2702">
        <ele>518.388</ele>
        <time>2013-05-06T07:54:03Z</time>
      </trkpt>
      <trkpt lat="44.3325" lon="5.26989">
        <ele>519.152</ele>
        <time>2013-05-06T07:54:10Z</time>
      </trkpt>
      <trkpt lat="44.33242" lon="5.26952">
        <ele>521.295</ele>
        <time>2013-05-06T07:54:18Z</time>
      </trkpt>
      <trkpt lat="44.33229" lon="5.26904">
        <ele>523.064</ele>
        <time>2013-05-06T07:54:29Z</time>
      </trkpt>
      <trkpt lat="44.33215" lon="5.2685">
        <ele>525.419</ele>
        <time>2013-05-06T07:54:40Z</time>
      </trkpt>
      <trkpt lat="44.33219" lon="5.26797">
        <ele>527.831</ele>
        <time>2013-05-06T07:54:50Z</time>
      </trkpt>
      <trkpt lat="44.33226" lon="5.2674">
        <ele>530.14</ele>
        <time>2013-05-06T07:55:01Z</time>
      </trkpt>
      <trkpt lat="44.33229" lon="5.26688">
        <ele>532.13</ele>
        <time>2013-05-06T07:55:11Z</time>
      </trkpt>
      <trkpt lat="44.33214" lon="5.26684">
        <ele>534.043</ele>
        <time>2013-05-06T07:55:15Z</time>
      </trkpt>
      <trkpt lat="44.33211" lon="5.26689">
        <ele>534.909</ele>
        <time>2013-05-06T07:55:16Z</time>
      </trkpt>
      <trkpt lat="44.33204" lon="5.26696">
        <ele>535.669</ele>
        <time>2013-05-06T07:55:18Z</time>
      </trkpt>
      <trkpt lat="44.33178" lon="5.26727">
        <ele>538.154</ele>
        <time>2013-05-06T07:55:26Z</time>
      </trkpt>
      <trkpt lat="44.33146" lon="5.26752">
        <ele>541.1</ele>
        <time>2013-05-06T07:55:36Z</time>
      </trkpt>
      <trkpt lat="44.33113" lon="5.26774">
        <ele>541.665</ele>
        <time>2013-05-06T07:55:45Z</time>
      </trkpt>
      <trkpt lat="44.33077" lon="5.26792">
        <ele>545.551</ele>
        <time>2013-05-06T07:55:53Z</time>
      </trkpt>
      <trkpt lat="44.33073" lon="5.26793">
        <ele>545.731</ele>
        <time>2013-05-06T07:55:54Z</time>
      </trkpt>
      <trkpt lat="44.33044" lon="5.26792">
        <ele>546.114</ele>
        <time>2013-05-06T07:56:02Z</time>
      </trkpt>
      <trkpt lat="44.33009" lon="5.26786">
        <ele>549.575</ele>
        <time>2013-05-06T07:56:13Z</time>
      </trkpt>
      <trkpt lat="44.32987" lon="5.26797">
        <ele>551.389</ele>
        <time>2013-05-06T07:56:20Z</time>
      </trkpt>
      <trkpt lat="44.32953" lon="5.26812">
        <ele>554.039</ele>
        <time>2013-05-06T07:56:31Z</time>
      </trkpt>
      <trkpt lat="44.32949" lon="5.26812">
        <ele>553.813</ele>
        <time>2013-05-06T07:56:32Z</time>
      </trkpt>
      <trkpt lat="44.32946" lon="5.268">
        <ele>554.426</ele>
        <time>2013-05-06T07:56:36Z</time>
      </trkpt>
      <trkpt lat="44.32945" lon="5.26796">
        <ele>554.8</ele>
        <time>2013-05-06T07:56:37Z</time>
      </trkpt>
      <trkpt lat="44.32947" lon="5.26786">
        <ele>555.765</ele>
        <time>2013-05-06T07:56:39Z</time>
      </trkpt>
      <trkpt lat="44.3296" lon="5.2674">
        <ele>557.597</ele>
        <time>2013-05-06T07:56:49Z</time>
      </trkpt>
      <trkpt lat="44.32975" lon="5.26688">
        <ele>560.189</ele>
        <time>2013-05-06T07:57:00Z</time>
      </trkpt>
      <trkpt lat="44.32982" lon="5.26635">
        <ele>562.634</ele>
        <time>2013-05-06T07:57:11Z</time>
      </trkpt>
      <trkpt lat="44.32988" lon="5.26593">
        <ele>565.452</ele>
        <time>2013-05-06T07:57:21Z</time>
      </trkpt>
      <trkpt lat="44.32992" lon="5.26548">
        <ele>566.619</ele>
        <time>2013-05-06T07:57:31Z</time>
      </trkpt>
      <trkpt lat="44.3298" lon="5.26519">
        <ele>569.225</ele>
        <time>2013-05-06T07:57:38Z</time>
      </trkpt>
      <trkpt lat="44.32957" lon="5.26481">
        <ele>571.408</ele>
        <time>2013-05-06T07:57:48Z</time>
      </trkpt>
      <trkpt lat="44.32943" lon="5.26448">
        <ele>574.538</ele>
        <time>2013-05-06T07:57:56Z</time>
      </trkpt>
      <trkpt lat="44.32929" lon="5.26402">
        <ele>576.254</ele>
        <time>2013-05-06T07:58:06Z</time>
      </trkpt>
      <trkpt lat="44.32913" lon="5.26351">
        <ele>579.281</ele>
        <time>2013-05-06T07:58:17Z</time>
      </trkpt>
      <trkpt lat="44.32893" lon="5.26304">
        <ele>581.826</ele>
        <time>2013-05-06T07:58:28Z</time>
      </trkpt>
      <trkpt lat="44.32869" lon="5.26276">
        <ele>584.415</ele>
        <time>2013-05-06T07:58:37Z</time>
      </trkpt>
      <trkpt lat="44.32847" lon="5.26251">
        <ele>584.946</ele>
        <time>2013-05-06T07:58:46Z</time>
      </trkpt>
      <trkpt lat="44.32832" lon="5.26257">
        <ele>586.208</ele>
        <time>2013-05-06T07:58:52Z</time>
      </trkpt>
      <trkpt lat="44.32821" lon="5.26278">
        <ele>587.224</ele>
        <time>2013-05-06T07:58:57Z</time>
      </trkpt>
      <trkpt lat="44.32795" lon="5.26325">
        <ele>589.365</ele>
        <time>2013-05-06T07:59:08Z</time>
      </trkpt>
      <trkpt lat="44.32769" lon="5.26353">
        <ele>590.863</ele>
        <time>2013-05-06T07:59:16Z</time>
      </trkpt>
      <trkpt lat="44.32738" lon="5.26371">
        <ele>593.033</ele>
        <time>2013-05-06T07:59:25Z</time>
      </trkpt>
      <trkpt lat="44.32702" lon="5.26375">
        <ele>594.567</ele>
        <time>2013-05-06T07:59:35Z</time>
      </trkpt>
      <trkpt lat="44.32693" lon="5.26373">
        <ele>595.935</ele>
        <time>2013-05-06T07:59:38Z</time>
      </trkpt>
      <trkpt lat="44.3266" lon="5.26367">
        <ele>597.927</ele>
        <time>2013-05-06T07:59:49Z</time>
      </trkpt>
      <trkpt lat="44.32628" lon="5.26353">
        <ele>600.431</ele>
        <time>2013-05-06T07:59:59Z</time>
      </trkpt>
      <trkpt lat="44.32603" lon="5.26331">
        <ele>602.183</ele>
        <time>2013-05-06T08:00:07Z</time>
      </trkpt>
      <trkpt lat="44.32585" lon="5.26303">
        <ele>604.093</ele>
        <time>2013-05-06T08:00:14Z</time>
      </trkpt>
      <trkpt lat="44.32562" lon="5.26271">
        <ele>605.88</ele>
        <time>2013-05-06T08:00:23Z</time>
      </trkpt>
      <trkpt lat="44.32537" lon="5.26259">
        <ele>607.8</ele>
        <time>2013-05-06T08:00:31Z</time>
      </trkpt>
      <trkpt lat="44.32516" lon="5.26261">
        <ele>608.843</ele>
        <time>2013-05-06T08:00:38Z</time>
      </trkpt>
      <trkpt lat="44.32486" lon="5.26256">
        <ele>610.354</ele>
        <time>2013-05-06T08:00:47Z</time>
      </trkpt>
      <trkpt lat="44.3246" lon="5.26244">
        <ele>612.391</ele>
        <time>2013-05-06T08:00:55Z</time>
      </trkpt>
      <trkpt lat="44.32432" lon="5.26233">
        <ele>614.529</ele>
        <time>2013-05-06T08:01:04Z</time>
      </trkpt>
      <trkpt lat="44.32399" lon="5.26243">
        <ele>616.427</ele>
        <time>2013-05-06T08:01:14Z</time>
      </trkpt>
      <trkpt lat="44.32381" lon="5.26263">
        <ele>618.262</ele>
        <time>2013-05-06T08:01:21Z</time>
      </trkpt>
      <trkpt lat="44.3238" lon="5.26299">
        <ele>619.496</ele>
        <time>2013-05-06T08:01:28Z</time>
      </trkpt>
      <trkpt lat="44.3238" lon="5.2634">
        <ele>621.569</ele>
        <time>2013-05-06T08:01:36Z</time>
      </trkpt>
      <trkpt lat="44.32367" lon="5.26345">
        <ele>622.626</ele>
        <time>2013-05-06T08:01:40Z</time>
      </trkpt>
      <trkpt lat="44.32346" lon="5.26346">
        <ele>624.091</ele>
        <time>2013-05-06T08:01:46Z</time>
      </trkpt>
      <trkpt lat="44.32315" lon="5.26351">
        <ele>625.757</ele>
        <time>2013-05-06T08:01:56Z</time>
      </trkpt>
      <trkpt lat="44.32292" lon="5.26369">
        <ele>627.064</ele>
        <time>2013-05-06T08:02:04Z</time>
      </trkpt>
      <trkpt lat="44.32256" lon="5.264">
        <ele>629.556</ele>
        <time>2013-05-06T08:02:15Z</time>
      </trkpt>
      <trkpt lat="44.32231" lon="5.264">
        <ele>631.766</ele>
        <time>2013-05-06T08:02:22Z</time>
      </trkpt>
      <trkpt lat="44.32227" lon="5.26399">
        <ele>632.005</ele>
        <time>2013-05-06T08:02:23Z</time>
      </trkpt>
      <trkpt lat="44.32203" lon="5.26378">
        <ele>633.175</ele>
        <time>2013-05-06T08:02:32Z</time>
      </trkpt>
      <trkpt lat="44.3218" lon="5.2634">
        <ele>635.271</ele>
        <time>2013-05-06T08:02:43Z</time>
      </trkpt>
      <trkpt lat="44.32156" lon="5.26301">
        <ele>637.223</ele>
        <time>2013-05-06T08:02:54Z</time>
      </trkpt>
      <trkpt lat="44.32125" lon="5.26265">
        <ele>639.222</ele>
        <time>2013-05-06T08:03:06Z</time>
      </trkpt>
      <trkpt lat="44.32101" lon="5.26256">
        <ele>640.21</ele>
        <time>2013-05-06T08:03:15Z</time>
      </trkpt>
      <trkpt lat="44.32073" lon="5.26261">
        <ele>640.965</ele>
        <time>2013-05-06T08:03:23Z</time>
      </trkpt>
      <trkpt lat="44.32065" lon="5.26267">
        <ele>640.937</ele>
        <time>2013-05-06T08:03:25Z</time>
      </trkpt>
      <trkpt lat="44.32034" lon="5.26306">
        <ele>643.107</ele>
        <time>2013-05-06T08:03:34Z</time>
      </trkpt>
      <trkpt lat="44.32014" lon="5.26337">
        <ele>643.942</ele>
        <time>2013-05-06T08:03:40Z</time>
      </trkpt>
      <trkpt lat="44.31992" lon="5.264">
        <ele>646.569</ele>
        <time>2013-05-06T08:03:50Z</time>
      </trkpt>
      <trkpt lat="44.31986" lon="5.26412">
        <ele>647.094</ele>
        <time>2013-05-06T08:03:52Z</time>
      </trkpt>
      <trkpt lat="44.31975" lon="5.26424">
        <ele>648.54</ele>
        <time>2013-05-06T08:03:55Z</time>
      </trkpt>
      <trkpt lat="44.3197" lon="5.26428">
        <ele>648.538</ele>
        <time>2013-05-06T08:03:56Z</time>
      </trkpt>
      <trkpt lat="44.31936" lon="5.26456">
        <ele>649.375</ele>
        <time>2013-05-06T08:04:04Z</time>
      </trkpt>
      <trkpt lat="44.31923" lon="5.26477">
        <ele>651.161</ele>
        <time>2013-05-06T08:04:08Z</time>
      </trkpt>
      <trkpt lat="44.31898" lon="5.26529">
        <ele>653.792</ele>
        <time>2013-05-06T08:04:17Z</time>
      </trkpt>
      <trkpt lat="44.31891" lon="5.26539">
        <ele>654.294</ele>
        <time>2013-05-06T08:04:19Z</time>
      </trkpt>
      <trkpt lat="44.3187" lon="5.2656">
        <ele>654.729</ele>
        <time>2013-05-06T08:04:24Z</time>
      </trkpt>
      <trkpt lat="44.3184" lon="5.2659">
        <ele>655.987</ele>
        <time>2013-05-06T08:04:32Z</time>
      </trkpt>
      <trkpt lat="44.31811" lon="5.26622">
        <ele>658.825</ele>
        <time>2013-05-06T08:04:42Z</time>
      </trkpt>
      <trkpt lat="44.3179" lon="5.26646">
        <ele>659.616</ele>
        <time>2013-05-06T08:04:49Z</time>
      </trkpt>
      <trkpt lat="44.31755" lon="5.26686">
        <ele>662.255</ele>
        <time>2013-05-06T08:04:59Z</time>
      </trkpt>
      <trkpt lat="44.31748" lon="5.26694">
        <ele>662.693</ele>
        <time>2013-05-06T08:05:01Z</time>
      </trkpt>
      <trkpt lat="44.3172" lon="5.26726">
        <ele>664.344</ele>
        <time>2013-05-06T08:05:10Z</time>
      </trkpt>
      <trkpt lat="44.31699" lon="5.2675">
        <ele>666.038</ele>
        <time>2013-05-06T08:05:19Z</time>
      </trkpt>
      <trkpt lat="44.31681" lon="5.26771">
        <ele>667.105</ele>
        <time>2013-05-06T08:05:27Z</time>
      </trkpt>
      <trkpt lat="44.31656" lon="5.268">
        <ele>669.171</ele>
        <time>2013-05-06T08:05:38Z</time>
      </trkpt>
      <trkpt lat="44.31627" lon="5.26833">
        <ele>670.772</ele>
        <time>2013-05-06T08:05:50Z</time>
      </trkpt>
      <trkpt lat="44.31595" lon="5.26849">
        <ele>672.759</ele>
        <time>2013-05-06T08:06:01Z</time>
      </trkpt>
      <trkpt lat="44.31556" lon="5.26865">
        <ele>675.05</ele>
        <time>2013-05-06T08:06:13Z</time>
      </trkpt>
      <trkpt lat="44.31536" lon="5.26882">
        <ele>676.058</ele>
        <time>2013-05-06T08:06:20Z</time>
      </trkpt>
      <trkpt lat="44.31506" lon="5.26904">
        <ele>678.484</ele>
        <time>2013-05-06T08:06:30Z</time>
      </trkpt>
      <trkpt lat="44.31485" lon="5.26906">
        <ele>679.547</ele>
        <time>2013-05-06T08:06:37Z</time>
      </trkpt>
      <trkpt lat="44.31451" lon="5.26906">
        <ele>681.129</ele>
        <time>2013-05-06T08:06:47Z</time>
      </trkpt>
      <trkpt lat="44.31434" lon="5.2692">
        <ele>681.92</ele>
        <time>2013-05-06T08:06:53Z</time>
      </trkpt>
      <trkpt lat="44.31419" lon="5.26945">
        <ele>683.842</ele>
        <time>2013-05-06T08:07:01Z</time>
      </trkpt>
      <trkpt lat="44.31413" lon="5.26956">
        <ele>685.546</ele>
        <time>2013-05-06T08:07:04Z</time>
      </trkpt>
      <trkpt lat="44.31392" lon="5.26993">
        <ele>687.276</ele>
        <time>2013-05-06T08:07:14Z</time>
      </trkpt>
      <trkpt lat="44.31365" lon="5.2704">
        <ele>689.994</ele>
        <time>2013-05-06T08:07:25Z</time>
      </trkpt>
      <trkpt lat="44.3136" lon="5.27049">
        <ele>690.654</ele>
        <time>2013-05-06T08:07:27Z</time>
      </trkpt>
      <trkpt lat="44.31338" lon="5.27092">
        <ele>692.599</ele>
        <time>2013-05-06T08:07:36Z</time>
      </trkpt>
      <trkpt lat="44.31329" lon="5.27122">
        <ele>695.134</ele>
        <time>2013-05-06T08:07:42Z</time>
      </trkpt>
      <trkpt lat="44.31315" lon="5.27169">
        <ele>697.923</ele>
        <time>2013-05-06T08:07:54Z</time>
      </trkpt>
      <trkpt lat="44.31302" lon="5.27213">
        <ele>699.508</ele>
        <time>2013-05-06T08:08:05Z</time>
      </trkpt>
      <trkpt lat="44.31291" lon="5.27249">
        <ele>700.49</ele>
        <time>2013-05-06T08:08:14Z</time>
      </trkpt>
      <trkpt lat="44.31281" lon="5.27284">
        <ele>702.494</ele>
        <time>2013-05-06T08:08:22Z</time>
      </trkpt>
      <trkpt lat="44.31282" lon="5.27324">
        <ele>705.063</ele>
        <time>2013-05-06T08:08:31Z</time>
      </trkpt>
      <trkpt lat="44.3129" lon="5.27357">
        <ele>706.924</ele>
        <time>2013-05-06T08:08:39Z</time>
      </trkpt>
      <trkpt lat="44.31297" lon="5.2739">
        <ele>708.781</ele>
        <time>2013-05-06T08:08:48Z</time>
      </trkpt>
      <trkpt lat="44.31305" lon="5.27434">
        <ele>710.274</ele>
        <time>2013-05-06T08:08:59Z</time>
      </trkpt>
      <trkpt lat="44.31303" lon="5.27482">
        <ele>712.255</ele>
        <time>2013-05-06T08:09:10Z</time>
      </trkpt>
      <trkpt lat="44.313" lon="5.27536">
        <ele>712.834</ele>
        <time>2013-05-06T08:09:22Z</time>
      </trkpt>
      <trkpt lat="44.31298" lon="5.27586">
        <ele>716.158</ele>
        <time>2013-05-06T08:09:33Z</time>
      </trkpt>
      <trkpt lat="44.31293" lon="5.27638">
        <ele>718.564</ele>
        <time>2013-05-06T08:09:44Z</time>
      </trkpt>
      <trkpt lat="44.31286" lon="5.27689">
        <ele>719.349</ele>
        <time>2013-05-06T08:09:54Z</time>
      </trkpt>
      <trkpt lat="44.3128" lon="5.27733">
        <ele>721.654</ele>
        <time>2013-05-06T08:10:02Z</time>
      </trkpt>
      <trkpt lat="44.31273" lon="5.27757">
        <ele>723.048</ele>
        <time>2013-05-06T08:10:08Z</time>
      </trkpt>
      <trkpt lat="44.31271" lon="5.27764">
        <ele>723.693</ele>
        <time>2013-05-06T08:10:13Z</time>
      </trkpt>
      <trkpt lat="44.31271" lon="5.27764">
        <ele>723.847</ele>
        <time>2013-05-06T08:10:14Z</time>
      </trkpt>
      <trkpt lat="44.31271" lon="5.27764">
        <ele>723.952</ele>
        <time>2013-05-06T08:10:21Z</time>
      </trkpt>
      <trkpt lat="44.31271" lon="5.27764">
        <ele>724.367</ele>
        <time>2013-05-06T08:10:35Z</time>
      </trkpt>
      <trkpt lat="44.31271" lon="5.27764">
        <ele>724.278</ele>
        <time>2013-05-06T08:10:45Z</time>
      </trkpt>
      <trkpt lat="44.31271" lon="5.27764">
        <ele>724.358</ele>
        <time>2013-05-06T08:10:54Z</time>
      </trkpt>
      <trkpt lat="44.31271" lon="5.27764">
        <ele>724.039</ele>
        <time>2013-05-06T08:10:57Z</time>
      </trkpt>
    </trkseg>
  </trk>
</gpx>